Latitude: N 50° 09' 49" Longitude: W 05° 11' 53" Elevation: 168m ASL

There are 12 visitors online

Adverts

<- Previous Day | Today | Next Day ->

All Data for 17 May 2018

Time
A - D
Temp
A - D
Dew Point
A - D
Humidity
A - D
Pressure
A - D
Wind
A - D
Wind Dir Gust
A - D
Rain Rate
A - D
Rain Total
00:00 12.1 11.2 94 1026.9 1.6 NE 1.6 0.0 0.0
00:02 12.1 11.2 94 1026.9 1.6 NE 1.6 0.0 0.0
00:04 12.1 11.2 94 1026.8 1.6 NE 1.6 0.0 0.0
00:06 12.1 11.3 95 1026.9 2.2 NE 2.2 0.0 0.0
00:07 12.1 11.2 94 1026.6 2.2 NE 2.2 0.0 0.0
00:09 12.1 11.2 94 1026.5 3.1 NE 3.1 0.0 0.0
00:10 12.1 11.2 94 1026.7 3.1 NE 3.1 0.0 0.0
00:12 12.1 11.2 94 1026.7 2.2 NE 3.1 0.0 0.0
00:14 12.0 11.2 95 1026.8 1.6 NE 3.1 0.0 0.0
00:15 12.0 11.1 94 1026.7 1.6 NE 3.1 0.0 0.0
00:17 12.0 11.1 94 1026.7 3.1 NE 3.1 0.0 0.0
00:18 12.0 11.1 94 1026.8 2.2 NE 3.1 0.0 0.0
00:19 12.0 11.1 94 1026.7 2.2 NE 3.1 0.0 0.0
00:20 12.0 11.1 94 1026.8 3.1 NE 3.1 0.0 0.0
00:21 12.0 11.1 94 1026.8 3.1 NE 3.1 0.0 0.0
00:22 12.0 11.1 94 1026.8 2.2 NE 3.1 0.0 0.0
00:24 12.0 11.1 94 1027.0 1.6 NE 3.1 0.0 0.0
00:25 12.0 11.1 94 1027.1 2.2 NE 3.1 0.0 0.0
00:26 12.0 11.2 95 1026.8 1.6 NE 3.1 0.0 0.0
00:28 11.9 11.0 94 1027.0 1.6 NE 3.1 0.0 0.0
00:29 11.9 11.0 94 1027.0 1.6 NE 3.1 0.0 0.0
00:30 11.9 11.1 95 1026.9 1.6 NE 3.1 0.0 0.0
00:31 11.9 11.0 94 1027.0 1.6 NE 3.1 0.0 0.0
00:32 11.9 11.0 94 1026.8 1.6 NE 2.2 0.0 0.0
00:33 11.9 11.0 94 1026.9 1.6 NE 2.2 0.0 0.0
00:34 11.9 11.0 94 1027.0 1.6 NE 2.2 0.0 0.0
00:35 11.9 11.0 94 1026.7 1.6 NE 2.2 0.0 0.0
00:37 11.9 11.0 94 1026.9 1.6 NE 2.2 0.0 0.0
00:38 11.8 10.9 94 1026.9 1.6 NE 1.6 0.0 0.0
00:39 11.8 10.9 94 1026.9 1.6 NE 1.6 0.0 0.0
00:40 11.8 10.9 94 1026.9 1.6 NE 1.6 0.0 0.0
00:41 11.8 10.9 94 1027.0 1.6 NE 1.6 0.0 0.0
00:43 11.8 10.9 94 1026.9 1.6 NE 1.6 0.0 0.0
00:44 11.8 10.9 94 1027.1 1.6 NE 1.6 0.0 0.0
00:45 11.8 10.9 94 1026.9 1.6 NE 1.6 0.0 0.0
00:46 11.8 10.9 94 1027.0 0.7 NE 1.6 0.0 0.0
00:47 11.7 10.8 94 1026.9 0.7 NE 1.6 0.0 0.0
00:48 11.8 10.9 94 1027.0 2.2 NE 2.2 0.0 0.0
00:49 11.8 10.9 94 1027.0 2.2 NE 2.2 0.0 0.0
00:50 11.8 10.9 94 1026.9 1.6 NE 2.2 0.0 0.0
00:51 11.7 10.8 94 1026.9 1.6 NE 2.2 0.0 0.0
00:52 11.6 10.7 94 1026.9 1.6 NE 2.2 0.0 0.0
00:53 11.7 10.8 94 1027.0 1.6 NE 2.2 0.0 0.0
00:54 11.7 10.8 94 1027.1 2.2 NE 2.2 0.0 0.0
00:55 11.7 10.8 94 1026.9 1.6 NE 2.2 0.0 0.0
00:57 11.7 10.8 94 1027.1 2.2 NE 2.2 0.0 0.0
00:58 11.7 10.8 94 1027.0 2.2 NE 2.2 0.0 0.0
00:59 11.7 10.8 94 1026.8 3.1 NE 3.8 0.0 0.0
01:00 11.7 10.8 94 1027.0 2.2 NE 3.8 0.0 0.0
01:01 11.7 10.8 94 1027.0 2.2 NE 3.8 0.0 0.0
01:02 11.7 10.8 94 1027.0 2.2 NE 3.8 0.0 0.0
01:03 11.7 10.8 94 1026.9 2.2 NE 3.8 0.0 0.0
01:04 11.7 10.8 94 1026.9 2.2 NE 3.8 0.0 0.0
01:05 11.7 10.8 94 1026.9 2.2 NE 3.8 0.0 0.0
01:06 11.7 10.8 94 1026.8 2.2 NE 3.8 0.0 0.0
01:07 11.7 10.8 94 1026.8 2.2 NE 3.8 0.0 0.0
01:08 11.7 10.8 94 1027.0 2.2 NE 3.8 0.0 0.0
01:09 11.5 10.6 94 1026.9 0.7 NE 2.2 0.0 0.0
01:10 11.5 10.6 94 1027.0 0.7 NE 2.2 0.0 0.0
01:12 11.5 10.6 94 1027.0 0.7 NE 2.2 0.0 0.0
01:13 11.4 10.5 94 1026.9 0.7 NE 2.2 0.0 0.0
01:14 11.4 10.5 94 1027.1 1.6 NE 2.2 0.0 0.0
01:15 11.4 10.5 94 1026.9 0.7 NE 2.2 0.0 0.0
01:16 11.4 10.5 94 1027.0 1.6 NE 2.2 0.0 0.0
01:17 11.4 10.5 94 1027.1 2.2 NE 2.2 0.0 0.0
01:18 11.4 10.5 94 1026.9 3.1 NE 3.1 0.0 0.0
01:19 11.4 10.5 94 1026.9 2.2 NE 3.1 0.0 0.0
01:20 11.4 10.5 94 1026.9 3.8 NE 3.8 0.0 0.0
01:21 11.3 10.4 94 1027.0 3.8 NE 3.8 0.0 0.0
01:22 11.3 10.4 94 1027.0 2.2 NE 3.8 0.0 0.0
01:23 11.3 10.4 94 1027.0 2.2 NE 3.8 0.0 0.0
01:24 11.3 10.4 94 1026.9 2.2 NE 3.8 0.0 0.0
01:26 11.3 10.4 94 1026.8 2.2 NE 3.8 0.0 0.0
01:27 11.3 10.4 94 1026.8 3.1 NE 3.8 0.0 0.0
01:28 11.2 10.3 94 1026.9 3.1 NE 3.8 0.0 0.0
01:29 11.2 10.3 94 1026.9 2.2 NE 3.8 0.0 0.0
01:30 11.2 10.3 94 1026.8 1.6 NE 3.8 0.0 0.0
01:31 11.2 10.3 94 1026.9 3.1 NE 3.8 0.0 0.0
01:32 11.2 10.3 94 1026.9 2.2 NE 3.8 0.0 0.0
01:33 11.1 10.2 94 1026.9 2.2 NE 3.8 0.0 0.0
01:34 11.1 10.2 94 1026.8 1.6 NE 3.8 0.0 0.0
01:35 11.1 10.2 94 1027.0 2.2 NE 3.8 0.0 0.0
01:36 11.1 10.2 94 1026.8 1.6 NE 3.8 0.0 0.0
01:37 11.1 10.2 94 1026.8 3.1 NE 3.8 0.0 0.0
01:39 11.1 10.2 94 1026.8 0.7 NE 3.8 0.0 0.0
01:40 11.1 10.2 94 1026.8 0.7 NE 3.8 0.0 0.0
01:41 11.0 10.1 94 1026.8 0.7 NE 3.8 0.0 0.0
01:42 11.0 10.1 94 1026.8 0.7 NE 3.8 0.0 0.0
01:43 11.0 10.1 94 1026.9 1.6 NE 3.1 0.0 0.0
01:44 11.0 10.1 94 1026.9 1.6 NE 3.1 0.0 0.0
01:45 11.0 10.1 94 1026.7 1.6 NE 3.1 0.0 0.0
01:46 11.0 10.1 94 1026.8 2.2 NE 3.1 0.0 0.0
01:47 11.0 10.1 94 1026.8 2.2 NE 3.1 0.0 0.0
01:48 10.9 10.0 94 1026.8 1.6 NE 3.1 0.0 0.0
01:49 10.9 10.0 94 1026.9 1.6 NE 2.2 0.0 0.0
01:50 10.9 10.0 94 1027.0 3.8 NE 3.8 0.0 0.0
01:51 10.9 10.0 94 1026.9 3.8 NE 3.8 0.0 0.0
01:53 10.9 10.0 94 1026.8 3.8 NE 3.8 0.0 0.0
01:54 10.9 10.0 94 1026.8 3.8 NE 3.8 0.0 0.0
01:55 10.9 10.0 94 1026.9 3.1 NE 3.8 0.0 0.0
01:56 10.8 9.9 94 1026.8 3.1 NE 3.8 0.0 0.0
01:57 10.8 9.9 94 1026.9 3.1 NE 3.8 0.0 0.0
01:58 10.8 9.9 94 1026.8 1.6 NE 3.8 0.0 0.0
01:59 10.8 9.9 94 1026.7 3.1 NE 3.8 0.0 0.0
02:00 10.8 9.9 94 1026.8 2.2 NE 3.8 0.0 0.0
02:01 10.8 9.9 94 1026.6 2.2 NE 3.8 0.0 0.0
02:02 10.8 9.9 94 1026.7 2.2 NE 3.8 0.0 0.0
02:03 10.8 9.9 94 1026.8 2.2 NE 3.8 0.0 0.0
02:04 10.8 9.9 94 1026.7 2.2 NE 3.1 0.0 0.0
02:06 10.7 9.8 94 1026.7 3.1 NE 3.1 0.0 0.0
02:07 10.7 9.8 94 1026.6 3.1 NE 3.1 0.0 0.0
02:08 10.7 9.8 94 1026.6 2.2 NE 3.8 0.0 0.0
02:09 10.7 9.8 94 1026.7 4.5 NE 4.5 0.0 0.0
02:10 10.7 9.8 94 1026.8 3.8 NE 4.5 0.0 0.0
02:11 10.7 9.8 94 1026.7 3.1 NE 4.5 0.0 0.0
02:12 10.7 9.8 94 1026.7 3.8 NE 4.5 0.0 0.0
02:13 10.6 9.7 94 1026.7 4.5 NE 4.5 0.0 0.0
02:15 10.6 9.7 94 1026.8 4.5 NE 4.5 0.0 0.0
02:16 10.6 9.7 94 1026.6 3.8 NE 4.5 0.0 0.0
02:17 10.6 9.7 94 1026.6 2.2 NE 4.5 0.0 0.0
02:18 10.6 9.7 94 1026.7 4.5 NE 4.5 0.0 0.0
02:19 10.6 9.7 94 1026.7 3.1 NE 4.5 0.0 0.0
02:20 10.6 9.7 94 1026.6 3.1 NE 4.5 0.0 0.0
02:21 10.6 9.7 94 1026.5 3.8 NE 4.5 0.0 0.0
02:22 10.6 9.7 94 1026.6 3.1 NE 4.5 0.0 0.0
02:23 10.6 9.7 94 1026.4 3.8 NE 4.5 0.0 0.0
02:24 10.6 9.7 94 1026.7 6.9 NE 6.9 0.0 0.0
02:25 10.5 9.6 94 1026.5 6.0 N 6.9 0.0 0.0
02:27 10.5 9.6 94 1026.5 3.1 NE 6.9 0.0 0.0
02:28 10.5 9.6 94 1026.5 2.2 NE 6.9 0.0 0.0
02:29 10.5 9.6 94 1026.4 5.4 NE 6.9 0.0 0.0
02:30 10.5 9.6 94 1026.3 6.9 NE 6.9 0.0 0.0
02:31 10.5 9.6 94 1026.5 2.2 NE 6.9 0.0 0.0
02:32 10.5 9.6 94 1026.4 4.5 N 6.9 0.0 0.0
02:33 10.4 9.5 94 1026.4 4.5 NE 6.9 0.0 0.0
02:34 10.4 9.5 94 1026.5 6.0 NE 6.9 0.0 0.0
02:35 10.4 9.5 94 1026.3 6.0 NE 6.9 0.0 0.0
02:36 10.4 9.5 94 1026.3 3.1 NE 6.9 0.0 0.0
02:37 10.4 9.5 94 1026.4 4.5 N 6.9 0.0 0.0
02:38 10.4 9.5 94 1026.3 6.9 NE 6.9 0.0 0.0
02:40 10.4 9.5 94 1026.3 5.4 NE 6.9 0.0 0.0
02:41 10.3 9.4 94 1026.4 3.8 NE 6.9 0.0 0.0
02:42 10.3 9.4 94 1026.3 3.1 NE 6.9 0.0 0.0
02:43 10.3 9.4 94 1026.4 3.1 NE 6.9 0.0 0.0
02:44 10.3 9.4 94 1026.3 3.8 NE 6.9 0.0 0.0
02:45 10.3 9.4 94 1026.4 3.8 NE 6.9 0.0 0.0
02:46 10.3 9.4 94 1026.3 6.0 NE 6.9 0.0 0.0
02:47 10.3 9.4 94 1026.4 3.8 NE 6.9 0.0 0.0
02:48 10.3 9.4 94 1026.4 4.5 NE 6.9 0.0 0.0
02:49 10.3 9.4 94 1026.3 5.4 NE 6.0 0.0 0.0
02:50 10.3 9.4 94 1026.5 2.2 NE 6.0 0.0 0.0
02:51 10.3 9.4 94 1026.6 1.6 NE 6.0 0.0 0.0
02:53 10.3 9.4 94 1026.4 1.6 NE 6.0 0.0 0.0
02:54 10.3 9.4 94 1026.5 3.8 NE 6.0 0.0 0.0
02:55 10.3 9.4 94 1026.4 2.2 NE 6.0 0.0 0.0
02:56 10.2 9.3 94 1026.5 3.1 NE 6.0 0.0 0.0
02:57 10.2 9.3 94 1026.3 2.2 NE 5.4 0.0 0.0
02:58 10.2 9.3 94 1026.4 3.8 NE 5.4 0.0 0.0
02:59 10.2 9.3 94 1026.6 1.6 NE 5.4 0.0 0.0
03:00 10.2 9.3 94 1026.5 3.1 NE 3.8 0.0 0.0
03:01 10.2 9.3 94 1026.3 3.1 NE 3.8 0.0 0.0
03:02 10.2 9.3 94 1026.4 3.1 NE 3.8 0.0 0.0
03:03 10.2 9.3 94 1026.4 3.1 NE 3.8 0.0 0.0
03:04 10.2 9.3 94 1026.4 3.1 NE 3.8 0.0 0.0
03:06 10.1 9.2 94 1026.3 3.8 NE 3.8 0.0 0.0
03:07 10.1 9.2 94 1026.3 3.8 NE 3.8 0.0 0.0
03:08 10.1 9.2 94 1026.5 2.2 NE 3.8 0.0 0.0
03:09 10.1 9.2 94 1026.4 4.5 NE 4.5 0.0 0.0
03:10 10.1 9.0 93 1026.2 3.8 NE 4.5 0.0 0.0
03:11 10.1 9.2 94 1026.4 3.1 NE 4.5 0.0 0.0
03:12 10.1 9.2 94 1026.3 0.7 NE 4.5 0.0 0.0
03:13 10.1 9.0 93 1026.2 3.8 NE 4.5 0.0 0.0
03:14 10.0 8.9 93 1026.3 3.1 NE 4.5 0.0 0.0
03:15 10.0 8.9 93 1026.2 2.2 NE 4.5 0.0 0.0
03:16 10.0 8.9 93 1026.5 4.5 NE 4.5 0.0 0.0
03:18 9.9 8.8 93 1026.2 5.4 NE 5.4 0.0 0.0
03:19 9.9 8.8 93 1026.3 4.5 NE 5.4 0.0 0.0
03:20 9.9 8.8 93 1026.3 2.2 NE 5.4 0.0 0.0
03:21 9.9 8.8 93 1026.3 3.8 NE 5.4 0.0 0.0
03:22 9.9 8.8 93 1026.3 3.1 NE 5.4 0.0 0.0
03:23 9.9 8.8 93 1026.3 3.1 E 5.4 0.0 0.0
03:24 9.9 8.8 93 1026.2 3.8 NE 5.4 0.0 0.0
03:25 9.8 8.7 93 1026.3 4.5 NE 5.4 0.0 0.0
03:26 9.8 8.7 93 1026.2 6.0 N 6.0 0.0 0.0
03:27 9.8 8.7 93 1026.3 4.5 NE 6.0 0.0 0.0
03:28 9.8 8.7 93 1026.2 3.8 N 6.0 0.0 0.0
03:29 9.8 8.7 93 1026.2 5.4 NE 6.0 0.0 0.0
03:31 9.7 8.6 93 1026.3 4.5 NE 6.0 0.0 0.0
03:32 9.7 8.6 93 1026.2 3.1 NE 6.0 0.0 0.0
03:33 9.7 8.6 93 1026.2 4.5 N 6.0 0.0 0.0
03:34 9.7 8.6 93 1026.3 4.5 NE 6.0 0.0 0.0
03:35 9.7 8.6 93 1026.3 6.0 NE 6.0 0.0 0.0
03:36 9.7 8.6 93 1026.4 4.5 NE 6.0 0.0 0.0
03:37 9.6 8.5 93 1026.3 4.5 NE 6.0 0.0 0.0
03:38 9.6 8.5 93 1026.3 4.5 NE 6.0 0.0 0.0
03:40 9.6 8.5 93 1026.1 4.5 NE 6.0 0.0 0.0
03:41 9.6 8.5 93 1026.3 4.5 NE 6.0 0.0 0.0
03:42 9.6 8.5 93 1026.3 7.6 NE 7.6 0.0 0.0
03:43 9.6 8.5 93 1026.3 4.5 NE 7.6 0.0 0.0
03:44 9.6 8.5 93 1026.3 4.5 NE 7.6 0.0 0.0
03:45 9.6 8.5 93 1026.3 3.8 NE 7.6 0.0 0.0
03:46 9.6 8.5 93 1026.3 4.5 NE 7.6 0.0 0.0
03:47 9.6 8.5 93 1026.4 4.5 NE 7.6 0.0 0.0
03:48 9.6 8.5 93 1026.3 3.8 NE 7.6 0.0 0.0
03:49 9.6 8.5 93 1026.2 3.8 NE 7.6 0.0 0.0
03:50 9.6 8.5 93 1026.3 4.5 NE 7.6 0.0 0.0
03:52 9.6 8.5 93 1026.2 5.4 NE 7.6 0.0 0.0
03:53 9.6 8.5 93 1026.3 4.5 N 5.4 0.0 0.0
03:54 9.6 8.5 93 1026.3 4.5 NE 5.4 0.0 0.0
03:55 9.5 8.4 93 1026.4 5.4 NE 5.4 0.0 0.0
03:56 9.6 8.5 93 1026.4 6.0 NE 6.0 0.0 0.0
03:57 9.5 8.4 93 1026.3 5.4 NE 6.0 0.0 0.0
03:58 9.5 8.4 93 1026.5 3.8 NE 6.0 0.0 0.0
03:59 9.5 8.4 93 1026.3 5.4 NE 6.0 0.0 0.0
04:00 9.5 8.4 93 1026.4 1.6 NE 6.0 0.0 0.0
04:01 9.5 8.4 93 1026.4 1.6 NE 6.0 0.0 0.0
04:02 9.5 8.4 93 1026.5 1.6 NE 6.0 0.0 0.0
04:04 9.5 8.4 93 1026.4 1.6 NE 6.0 0.0 0.0
04:05 9.5 8.4 93 1026.4 1.6 NE 6.0 0.0 0.0
04:06 9.5 8.4 93 1026.3 3.8 NE 6.0 0.0 0.0
04:07 9.4 8.3 93 1026.4 6.0 NE 6.0 0.0 0.0
04:08 9.4 8.3 93 1026.4 5.4 NE 6.0 0.0 0.0
04:10 9.4 8.3 93 1026.5 5.4 NE 6.0 0.0 0.0
04:11 9.4 8.3 93 1026.4 1.6 NE 6.0 0.0 0.0
04:12 9.3 8.2 93 1026.4 3.8 NE 6.0 0.0 0.0
04:13 9.3 8.2 93 1026.3 4.5 NE 6.0 0.0 0.0
04:14 9.3 8.2 93 1026.3 4.5 NE 6.0 0.0 0.0
04:15 9.3 8.2 93 1026.2 5.4 NE 6.0 0.0 0.0
04:16 9.3 8.2 93 1026.3 3.8 NE 6.0 0.0 0.0
04:17 9.3 8.2 93 1026.3 6.0 NE 6.0 0.0 0.0
04:19 9.2 8.1 93 1026.3 4.5 NE 7.6 0.0 0.0
04:20 9.2 8.1 93 1026.3 9.2 N 9.2 0.0 0.0
04:21 9.2 8.1 93 1026.3 5.4 NE 9.2 0.0 0.0
04:22 9.2 8.1 93 1026.2 7.6 N 9.2 0.0 0.0
04:23 9.2 8.1 93 1026.3 7.6 NE 9.2 0.0 0.0
04:24 9.1 8.0 93 1026.3 5.4 NE 9.2 0.0 0.0
04:25 9.2 8.1 93 1026.2 6.9 NE 9.2 0.0 0.0
04:26 9.1 8.0 93 1026.5 4.5 NE 9.2 0.0 0.0
04:27 9.1 8.0 93 1026.4 4.5 NE 10.7 0.0 0.0
04:28 9.1 8.0 93 1026.4 4.5 NE 10.7 0.0 0.0
04:29 9.1 7.9 92 1026.3 3.8 NE 10.7 0.0 0.0
04:31 9.1 7.9 92 1026.4 6.9 NE 10.7 0.0 0.0
04:32 9.1 7.9 92 1026.3 4.5 NE 10.7 0.0 0.0
04:33 9.1 7.9 92 1026.3 5.4 NE 10.7 0.0 0.0
04:34 9.1 7.9 92 1026.3 6.9 NE 10.7 0.0 0.0
04:35 9.0 7.8 92 1026.3 6.9 NE 10.7 0.0 0.0
04:36 9.0 7.8 92 1026.3 6.0 N 10.7 0.0 0.0
04:37 9.0 7.8 92 1026.3 4.5 NE 6.9 0.0 0.0
04:38 9.0 7.8 92 1026.3 3.8 NE 6.9 0.0 0.0
04:39 9.0 7.8 92 1026.5 1.6 NE 6.9 0.0 0.0
04:40 9.0 7.8 92 1026.3 6.0 NE 6.9 0.0 0.0
04:41 9.0 7.8 92 1026.3 4.5 NE 6.9 0.0 0.0
04:42 9.0 7.8 92 1026.4 5.4 N 6.9 0.0 0.0
04:43 9.0 7.8 92 1026.3 5.4 NE 6.9 0.0 0.0
04:45 8.9 7.7 92 1026.2 4.5 NE 6.9 0.0 0.0
04:46 8.9 7.7 92 1026.4 4.5 NE 6.9 0.0 0.0
04:47 8.9 7.7 92 1026.3 3.1 NE 6.9 0.0 0.0
04:48 8.9 7.7 92 1026.2 4.5 NE 6.9 0.0 0.0
04:49 8.9 7.7 92 1026.2 3.8 NE 6.9 0.0 0.0
04:50 8.9 7.7 92 1026.3 5.4 NE 6.9 0.0 0.0
04:51 8.9 7.7 92 1026.3 6.0 NE 6.9 0.0 0.0
04:52 8.8 7.6 92 1026.3 5.4 NE 6.9 0.0 0.0
04:53 8.8 7.6 92 1026.3 6.0 NE 6.9 0.0 0.0
04:54 8.8 7.6 92 1026.2 4.5 NE 6.0 0.0 0.0
04:55 8.8 7.6 92 1026.4 3.8 NE 6.0 0.0 0.0
04:56 8.8 7.6 92 1026.2 4.5 NE 6.0 0.0 0.0
04:57 8.8 7.6 92 1026.1 3.8 NE 6.0 0.0 0.0
04:58 8.8 7.6 92 1026.2 3.1 NE 6.0 0.0 0.0
04:59 8.8 7.6 92 1026.1 3.8 NE 6.0 0.0 0.0
05:00 8.8 7.6 92 1026.1 3.1 NE 6.0 0.0 0.0
05:01 8.8 7.6 92 1026.2 3.1 NE 6.0 0.0 0.0
05:02 8.7 7.5 92 1026.2 4.5 NE 6.0 0.0 0.0
05:03 8.7 7.5 92 1026.2 3.1 NE 4.5 0.0 0.0
05:04 8.7 7.3 91 1026.3 3.1 NE 4.5 0.0 0.0
05:05 8.7 7.5 92 1026.2 3.1 NE 4.5 0.0 0.0
05:06 8.7 7.5 92 1026.3 3.1 NE 4.5 0.0 0.0
05:07 8.7 7.3 91 1026.3 1.6 NE 4.5 0.0 0.0
05:08 8.7 7.3 91 1026.2 3.8 NE 4.5 0.0 0.0
05:09 8.7 7.3 91 1026.2 2.2 NE 4.5 0.0 0.0
05:10 8.6 7.2 91 1026.1 5.4 NE 5.4 0.0 0.0
05:11 8.6 7.2 91 1026.2 1.6 NE 5.4 0.0 0.0
05:12 8.6 7.2 91 1026.1 0.7 NE 5.4 0.0 0.0
05:13 8.6 7.4 92 1026.1 0.7 NE 5.4 0.0 0.0
05:14 8.6 7.4 92 1026.1 2.2 NE 5.4 0.0 0.0
05:15 8.6 7.4 92 1026.2 3.1 NE 5.4 0.0 0.0
05:16 8.6 7.4 92 1026.0 2.2 NE 5.4 0.0 0.0
05:17 8.6 7.2 91 1026.2 1.6 NE 5.4 0.0 0.0
05:18 8.6 7.2 91 1026.2 1.6 NE 5.4 0.0 0.0
05:19 8.6 7.4 92 1026.1 0.0 NE 5.4 0.0 0.0
05:20 8.6 7.4 92 1026.3 2.2 NE 3.8 0.0 0.0
05:22 8.5 7.3 92 1026.2 1.6 NE 3.1 0.0 0.0
05:23 8.5 7.3 92 1026.1 2.2 NE 3.1 0.0 0.0
05:24 8.5 7.3 92 1026.2 2.2 NE 3.1 0.0 0.0
05:25 8.5 7.1 91 1026.0 1.6 NE 3.1 0.0 0.0
05:26 8.5 7.3 92 1026.1 1.6 NE 2.2 0.0 0.0
05:27 8.5 7.3 92 1026.2 1.6 NE 2.2 0.0 0.0
05:28 8.5 7.3 92 1026.1 3.1 NE 3.1 0.0 0.0
05:29 8.5 7.3 92 1026.1 1.6 NE 3.1 0.0 0.0
05:30 8.5 7.3 92 1026.2 3.1 NE 3.8 0.0 0.0
05:31 8.5 7.3 92 1026.0 1.6 NE 3.8 0.0 0.0
05:32 8.5 7.3 92 1026.1 0.7 NE 3.8 0.0 0.0
05:33 8.5 7.3 92 1026.2 3.1 NE 3.8 0.0 0.0
05:34 8.4 7.2 92 1026.1 2.2 NE 3.8 0.0 0.0
05:35 8.4 7.2 92 1026.2 3.1 NE 3.8 0.0 0.0
05:36 8.4 7.2 92 1026.2 2.2 NE 3.8 0.0 0.0
05:37 8.4 7.2 92 1026.2 2.2 NE 3.8 0.0 0.0
05:38 8.4 7.2 92 1026.2 4.5 NE 4.5 0.0 0.0
05:39 8.4 7.2 92 1026.2 3.1 NE 4.5 0.0 0.0
05:40 8.4 7.2 92 1026.2 2.2 NE 4.5 0.0 0.0
05:41 8.4 7.2 92 1026.2 2.2 NE 4.5 0.0 0.0
05:42 8.4 7.2 92 1026.2 3.1 NE 4.5 0.0 0.0
05:43 8.4 7.2 92 1026.2 5.4 NE 5.4 0.0 0.0
05:44 8.4 7.2 92 1026.3 4.5 NE 5.4 0.0 0.0
05:45 8.4 7.2 92 1026.3 3.8 NE 5.4 0.0 0.0
05:46 8.4 7.2 92 1026.2 3.8 NE 5.4 0.0 0.0
05:47 8.4 7.2 92 1026.3 2.2 NE 5.4 0.0 0.0
05:48 8.4 7.2 92 1026.2 3.1 NE 5.4 0.0 0.0
05:49 8.4 7.2 92 1026.2 3.1 NE 5.4 0.0 0.0
05:50 8.4 7.2 92 1026.1 5.4 NE 5.4 0.0 0.0
05:51 8.4 7.2 92 1026.3 3.8 NE 5.4 0.0 0.0
05:52 8.4 7.2 92 1026.3 3.1 NE 5.4 0.0 0.0
05:53 8.4 7.2 92 1026.3 3.8 NE 5.4 0.0 0.0
05:55 8.4 7.2 92 1026.3 3.1 NE 5.4 0.0 0.0
05:56 8.4 7.2 92 1026.3 5.4 NE 5.4 0.0 0.0
05:57 8.4 7.2 92 1026.4 2.2 NE 5.4 0.0 0.0
05:58 8.4 7.2 92 1026.3 3.8 NE 5.4 0.0 0.0
05:59 8.4 7.2 92 1026.3 5.4 NE 5.4 0.0 0.0
06:00 8.3 7.1 92 1026.2 3.8 NE 5.4 0.0 0.0
06:01 8.3 7.1 92 1026.3 3.8 NE 5.4 0.0 0.0
06:02 8.3 7.1 92 1026.4 4.5 N 6.9 0.0 0.0
06:03 8.3 6.9 91 1026.4 3.8 NE 6.9 0.0 0.0
06:04 8.3 7.1 92 1026.4 5.4 NE 6.9 0.0 0.0
06:05 8.3 6.9 91 1026.2 3.1 NE 6.9 0.0 0.0
06:06 8.3 6.9 91 1026.3 2.2 NE 6.9 0.0 0.0
06:07 8.3 6.9 91 1026.3 3.8 NE 6.9 0.0 0.0
06:08 8.3 6.9 91 1026.3 3.1 NE 6.9 0.0 0.0
06:10 8.3 6.9 91 1026.3 3.8 NE 6.9 0.0 0.0
06:11 8.3 6.9 91 1026.3 3.8 NE 6.9 0.0 0.0
06:12 8.3 6.9 91 1026.2 7.6 N 7.6 0.0 0.0
06:14 8.3 6.9 91 1026.3 5.4 NE 7.6 0.0 0.0
06:15 8.3 6.9 91 1026.1 5.4 NE 7.6 0.0 0.0
06:16 8.3 6.9 91 1026.2 5.4 NE 7.6 0.0 0.0
06:17 8.3 6.9 91 1026.2 3.8 NE 7.6 0.0 0.0
06:18 8.3 6.9 91 1026.2 3.8 NE 7.6 0.0 0.0
06:19 8.3 6.9 91 1026.3 4.5 NE 7.6 0.0 0.0
06:20 8.3 6.9 91 1026.3 3.1 N 7.6 0.0 0.0
06:21 8.3 6.9 91 1026.1 6.0 NE 7.6 0.0 0.0
06:22 8.3 6.9 91 1026.1 3.8 NE 7.6 0.0 0.0
06:23 8.3 6.9 91 1025.9 5.4 NE 6.9 0.0 0.0
06:24 8.3 6.9 91 1026.1 4.5 NE 6.9 0.0 0.0
06:25 8.3 6.9 91 1026.1 6.0 NE 6.9 0.0 0.0
06:26 8.3 6.9 91 1026.2 4.5 NE 6.9 0.0 0.0
06:27 8.3 6.9 91 1026.2 3.8 NE 6.9 0.0 0.0
06:28 8.3 6.9 91 1026.2 3.8 NE 6.9 0.0 0.0
06:29 8.3 6.9 91 1026.2 3.1 NE 6.9 0.0 0.0
06:30 8.3 6.9 91 1026.1 6.0 NE 6.9 0.0 0.0
06:31 8.3 6.9 91 1026.2 4.5 NE 7.6 0.0 0.0
06:32 8.4 7.0 91 1026.2 6.9 NE 7.6 0.0 0.0
06:33 8.4 7.0 91 1026.1 6.0 NE 7.6 0.0 0.0
06:34 8.4 7.0 91 1026.1 5.4 NE 7.6 0.0 0.0
06:35 8.4 7.0 91 1026.1 3.8 NE 7.6 0.0 0.0
06:36 8.4 7.0 91 1026.1 3.1 NE 7.6 0.0 0.0
06:38 8.4 7.0 91 1026.1 3.8 NE 7.6 0.0 0.0
06:39 8.4 7.0 91 1026.2 3.1 NE 7.6 0.0 0.0
06:40 8.4 7.0 91 1026.1 3.8 NE 7.6 0.0 0.0
06:41 8.4 7.0 91 1026.2 5.4 NE 10.7 0.0 0.0
06:42 8.4 7.0 91 1026.3 6.9 N 10.7 0.0 0.0
06:43 8.5 7.1 91 1026.1 6.9 N 10.7 0.0 0.0
06:44 8.5 7.1 91 1026.2 6.9 NE 10.7 0.0 0.0
06:45 8.5 7.1 91 1026.3 6.0 NE 10.7 0.0 0.0
06:46 8.5 7.1 91 1026.3 6.0 N 10.7 0.0 0.0
06:47 8.5 7.1 91 1026.3 6.0 NE 10.7 0.0 0.0
06:48 8.5 7.1 91 1026.3 4.5 NE 10.7 0.0 0.0
06:49 8.5 7.1 91 1026.3 6.0 NE 10.7 0.0 0.0
06:50 8.6 7.2 91 1026.4 4.5 NE 10.7 0.0 0.0
06:51 8.6 7.2 91 1026.4 4.5 NE 6.9 0.0 0.0
06:52 8.6 7.2 91 1026.4 7.6 NE 7.6 0.0 0.0
06:53 8.6 7.2 91 1026.4 3.1 NE 7.6 0.0 0.0
06:55 8.6 7.2 91 1026.3 4.5 NE 7.6 0.0 0.0
06:56 8.6 7.2 91 1026.3 3.1 NE 7.6 0.0 0.0
06:57 8.7 7.3 91 1026.3 3.8 NE 7.6 0.0 0.0
06:58 8.6 7.2 91 1026.3 3.8 NE 7.6 0.0 0.0
06:59 8.7 7.3 91 1026.3 6.0 N 7.6 0.0 0.0
07:00 8.7 7.3 91 1026.5 4.5 N 7.6 0.0 0.0
07:01 8.7 7.3 91 1026.3 1.6 N 7.6 0.0 0.0
07:02 8.7 7.3 91 1026.5 3.1 N 7.6 0.0 0.0
07:03 8.7 7.3 91 1026.6 5.4 NE 6.0 0.0 0.0
07:04 8.8 7.4 91 1026.5 5.4 NE 6.0 0.0 0.0
07:05 8.8 7.4 91 1026.5 3.8 NE 6.0 0.0 0.0
07:06 8.8 7.4 91 1026.6 2.2 NE 6.0 0.0 0.0
07:07 8.8 7.4 91 1026.6 3.8 NE 6.0 0.0 0.0
07:08 8.8 7.4 91 1026.6 4.5 NE 6.0 0.0 0.0
07:09 8.9 7.5 91 1026.7 4.5 NE 5.4 0.0 0.0
07:11 8.9 7.5 91 1026.6 3.1 NE 5.4 0.0 0.0
07:12 8.9 7.5 91 1026.7 3.8 NE 5.4 0.0 0.0
07:13 9.0 7.6 91 1026.8 0.7 NE 5.4 0.0 0.0
07:14 9.0 7.6 91 1026.8 6.0 NE 6.0 0.0 0.0
07:15 9.0 7.6 91 1026.8 3.1 NE 6.0 0.0 0.0
07:16 9.1 7.7 91 1026.8 3.1 NE 6.0 0.0 0.0
07:17 9.1 7.7 91 1026.8 5.4 N 6.0 0.0 0.0
07:18 9.2 7.8 91 1026.8 6.9 NE 6.9 0.0 0.0
07:19 9.2 7.8 91 1026.9 2.2 NE 6.9 0.0 0.0
07:20 9.2 7.8 91 1026.8 3.8 NE 6.9 0.0 0.0
07:21 9.3 7.9 91 1026.8 6.0 E 6.9 0.0 0.0
07:22 9.3 7.9 91 1026.8 3.1 E 6.9 0.0 0.0
07:23 9.3 7.9 91 1026.7 5.4 NE 6.9 0.0 0.0
07:24 9.4 8.0 91 1026.8 5.4 NE 6.9 0.0 0.0
07:26 9.5 8.1 91 1026.8 1.6 NE 6.9 0.0 0.0
07:27 9.5 8.1 91 1026.8 3.1 NE 6.9 0.0 0.0
07:28 9.5 8.1 91 1026.9 3.1 NE 6.9 0.0 0.0
07:29 9.6 8.2 91 1026.9 4.5 N 6.0 0.0 0.0
07:30 9.6 8.2 91 1027.1 4.5 NE 6.0 0.0 0.0
07:31 9.6 8.2 91 1026.9 3.8 NE 6.0 0.0 0.0
07:32 9.7 8.3 91 1026.9 7.6 NE 7.6 0.0 0.0
07:33 9.7 8.3 91 1026.9 6.9 NE 7.6 0.0 0.0
07:34 9.7 8.3 91 1026.8 7.6 NE 7.6 0.0 0.0
07:35 9.8 8.2 90 1026.9 7.6 NE 7.6 0.0 0.0
07:37 9.8 8.2 90 1026.8 6.9 N 7.6 0.0 0.0
07:38 9.8 8.2 90 1026.8 7.6 N 7.6 0.0 0.0
07:39 9.8 8.2 90 1026.8 12.1 N 12.1 0.0 0.0
07:40 9.8 8.2 90 1026.7 7.6 N 12.1 0.0 0.0
07:41 9.9 8.3 90 1026.8 9.8 NE 12.1 0.0 0.0
07:42 9.9 8.3 90 1026.8 6.0 N 12.1 0.0 0.0
07:43 9.9 8.3 90 1026.8 7.6 NE 12.1 0.0 0.0
07:44 9.9 8.3 90 1026.8 4.5 NE 12.1 0.0 0.0
07:46 9.9 8.3 90 1026.7 8.3 NE 12.1 0.0 0.0
07:47 9.9 8.3 90 1026.8 7.6 NE 12.1 0.0 0.0
07:48 9.9 8.3 90 1026.7 6.0 NE 12.1 0.0 0.0
07:49 9.9 8.3 90 1026.8 7.6 NE 12.1 0.0 0.0
07:50 9.9 8.3 90 1026.8 7.6 NE 9.8 0.0 0.0
07:51 9.9 8.3 90 1026.7 8.3 NE 9.8 0.0 0.0
07:52 10.0 8.4 90 1026.8 8.3 NE 9.8 0.0 0.0
07:53 9.9 8.2 89 1026.8 6.0 NE 9.8 0.0 0.0
07:54 10.0 8.3 89 1026.8 5.4 NE 9.8 0.0 0.0
07:55 10.0 8.3 89 1026.8 6.9 NE 9.8 0.0 0.0
07:56 10.0 8.3 89 1026.8 9.2 N 9.2 0.0 0.0
07:57 10.0 8.3 89 1026.9 7.6 NE 9.2 0.0 0.0
07:58 10.0 8.3 89 1026.9 3.1 NE 9.2 0.0 0.0
07:59 10.0 8.3 89 1026.8 7.6 NE 9.2 0.0 0.0
08:00 10.0 8.3 89 1026.9 7.6 NE 9.2 0.0 0.0
08:01 10.0 8.3 89 1026.8 8.3 NE 9.2 0.0 0.0
08:03 10.0 8.3 89 1026.8 8.3 E 9.2 0.0 0.0
08:04 10.0 8.3 89 1026.8 4.5 NE 9.2 0.0 0.0
08:05 10.0 8.3 89 1026.8 7.6 NE 9.2 0.0 0.0
08:06 10.0 8.3 89 1026.8 4.5 N 9.2 0.0 0.0
08:07 10.0 8.3 89 1026.8 5.4 NE 8.3 0.0 0.0
08:08 10.0 8.3 89 1026.8 8.3 NE 8.3 0.0 0.0
08:09 10.0 8.3 89 1026.8 5.4 NE 8.3 0.0 0.0
08:11 10.0 8.1 88 1026.9 8.3 N 8.3 0.0 0.0
08:13 10.0 8.1 88 1026.9 6.0 NE 8.3 0.0 0.0
08:15 10.1 8.2 88 1026.7 8.3 NE 8.3 0.0 0.0
08:17 10.1 8.2 88 1026.9 9.8 N 9.8 0.0 0.0
08:19 10.1 8.2 88 1026.8 8.3 N 9.8 0.0 0.0
08:20 10.1 8.2 88 1026.8 6.0 NE 9.8 0.0 0.0
08:21 10.1 8.2 88 1026.8 5.4 NE 9.8 0.0 0.0
08:23 10.1 8.2 88 1026.9 5.4 NE 9.8 0.0 0.0
08:24 10.1 8.2 88 1026.8 9.2 NE 9.8 0.0 0.0
08:25 10.1 8.2 88 1026.9 7.6 NE 9.8 0.0 0.0
08:26 10.1 8.2 88 1027.0 5.4 NE 9.8 0.0 0.0
08:28 10.2 8.3 88 1026.9 3.1 NE 9.2 0.0 0.0
08:30 10.2 8.3 88 1026.9 4.5 NE 9.2 0.0 0.0
08:32 10.2 8.3 88 1027.0 9.2 NE 9.2 0.0 0.0
08:33 10.3 8.4 88 1027.1 6.0 N 9.2 0.0 0.0
08:34 10.3 8.2 87 1027.0 12.1 NE 12.1 0.0 0.0
08:36 10.3 8.2 87 1026.9 10.7 NE 12.1 0.0 0.0
08:37 10.3 8.2 87 1026.8 10.7 N 12.1 0.0 0.0
08:38 10.3 8.2 87 1026.9 6.9 N 12.1 0.0 0.0
08:39 10.3 8.2 87 1026.9 13.0 NE 13.0 0.0 0.0
08:40 10.3 8.2 87 1026.9 9.2 NW 13.0 0.0 0.0
08:42 10.3 8.2 87 1026.8 13.0 NE 13.0 0.0 0.0
08:43 10.2 8.1 87 1026.9 7.6 N 13.0 0.0 0.0
08:44 10.2 8.0 86 1026.9 10.7 N 13.0 0.0 0.0
08:45 10.2 8.0 86 1026.8 9.2 NE 13.0 0.0 0.0
08:46 10.2 8.0 86 1026.9 5.4 NE 13.0 0.0 0.0
08:47 10.2 8.0 86 1026.9 11.4 NE 13.0 0.0 0.0
08:48 10.2 8.0 86 1026.9 9.2 NE 13.0 0.0 0.0
08:49 10.2 8.0 86 1027.0 10.7 N 13.0 0.0 0.0
08:50 10.2 8.0 86 1026.8 5.4 N 13.0 0.0 0.0
08:52 10.2 8.0 86 1027.0 6.0 N 11.4 0.0 0.0
08:53 10.2 8.0 86 1026.9 8.3 N 11.4 0.0 0.0
08:54 10.2 8.0 86 1027.0 7.6 NE 11.4 0.0 0.0
08:55 10.2 8.0 86 1026.9 6.0 N 11.4 0.0 0.0
08:56 10.2 7.8 85 1027.0 8.3 N 11.4 0.0 0.0
08:57 10.2 8.0 86 1026.9 7.6 NE 11.4 0.0 0.0
08:58 10.2 7.8 85 1027.0 6.0 N 10.7 0.0 0.0
08:59 10.2 7.8 85 1027.0 5.4 N 8.3 0.0 0.0
09:00 10.2 7.8 85 1026.9 9.8 E 9.8 0.0 0.0
09:01 10.2 7.8 85 1026.9 9.8 E 9.8 0.0 0.0
09:02 10.2 7.8 85 1027.0 9.8 E 9.8 0.0 0.0
09:03 10.2 7.8 85 1027.0 9.8 E 9.8 0.0 0.0
09:04 10.2 7.8 85 1027.0 9.8 E 9.8 0.0 0.0
09:05 10.2 7.8 85 1027.1 10.7 NE 10.7 0.0 0.0
09:07 10.2 7.8 85 1027.0 5.4 NE 10.7 0.0 0.0
09:08 10.2 7.8 85 1027.0 8.3 NE 10.7 0.0 0.0
09:09 10.2 7.8 85 1026.9 7.6 NE 10.7 0.0 0.0
09:10 10.2 7.8 85 1027.0 7.6 NE 10.7 0.0 0.0
09:11 10.2 7.8 85 1027.1 5.4 NE 10.7 0.0 0.0
09:12 10.2 7.8 85 1027.1 4.5 NE 10.7 0.0 0.0
09:13 10.2 7.8 85 1027.0 7.6 NE 10.7 0.0 0.0
09:14 10.2 7.8 85 1027.0 6.9 NE 10.7 0.0 0.0
09:16 10.2 7.8 85 1027.1 4.5 N 8.3 0.0 0.0
09:17 10.3 7.9 85 1026.9 9.8 NE 9.8 0.0 0.0
09:18 10.3 7.9 85 1027.1 3.8 N 9.8 0.0 0.0
09:19 10.3 7.9 85 1027.0 5.4 NE 9.8 0.0 0.0
09:20 10.3 7.9 85 1027.1 3.8 NE 9.8 0.0 0.0
09:22 10.3 7.9 85 1027.2 10.7 NE 10.7 0.0 0.0
09:23 10.3 7.9 85 1027.1 6.0 N 10.7 0.0 0.0
09:24 10.3 7.9 85 1027.1 6.0 N 10.7 0.0 0.0
09:25 10.3 7.9 85 1027.2 5.4 N 10.7 0.0 0.0
09:26 10.3 7.9 85 1027.2 4.5 N 10.7 0.0 0.0
09:27 10.3 7.9 85 1027.1 8.3 E 10.7 0.0 0.0
09:28 10.4 8.0 85 1027.2 3.8 NW 10.7 0.0 0.0
09:29 10.4 8.0 85 1027.2 9.8 NE 10.7 0.0 0.0
09:30 10.4 8.0 85 1027.1 7.6 NE 10.7 0.0 0.0
09:31 10.4 8.0 85 1027.2 9.2 NE 10.7 0.0 0.0
09:32 10.4 8.0 85 1027.1 9.8 SE 9.8 0.0 0.0
09:33 10.4 7.8 84 1027.0 6.0 NE 9.8 0.0 0.0
09:35 10.4 7.8 84 1027.2 6.9 NE 9.8 0.0 0.0
09:36 10.4 7.8 84 1027.1 7.6 NE 9.8 0.0 0.0
09:37 10.4 7.8 84 1027.2 5.4 N 9.8 0.0 0.0
09:38 10.4 7.8 84 1027.2 6.0 NE 9.8 0.0 0.0
09:39 10.5 7.9 84 1027.1 8.3 N 9.8 0.0 0.0
09:40 10.5 7.9 84 1027.0 10.7 N 10.7 0.0 0.0
09:41 10.3 7.7 84 1027.1 9.8 N 10.7 0.0 0.0
09:42 10.5 7.9 84 1027.1 12.1 N 12.1 0.0 0.0
09:43 10.5 7.9 84 1027.1 9.2 N 12.1 0.0 0.0
09:44 10.5 7.9 84 1027.1 9.8 NE 12.1 0.0 0.0
09:45 10.5 7.9 84 1027.1 9.8 NE 12.1 0.0 0.0
09:46 10.5 7.7 83 1027.1 8.3 N 12.1 0.0 0.0
09:47 10.5 7.7 83 1027.3 8.3 NE 12.1 0.0 0.0
09:48 10.5 7.7 83 1027.2 8.3 NE 12.1 0.0 0.0
09:49 10.5 7.7 83 1027.1 8.3 N 12.1 0.0 0.0
09:51 10.5 7.7 83 1027.2 6.9 NE 12.1 0.0 0.0
09:52 10.5 7.7 83 1027.1 13.0 N 13.0 0.0 0.0
09:53 10.5 7.7 83 1027.2 10.7 N 13.0 0.0 0.0
09:54 10.5 7.7 83 1027.1 13.0 NE 13.0 0.0 0.0
09:55 10.5 7.7 83 1027.2 7.6 N 13.0 0.0 0.0
09:56 10.5 7.6 82 1027.1 9.2 NE 13.0 0.0 0.0
09:57 10.5 7.6 82 1027.2 10.7 NE 13.0 0.0 0.0
09:58 10.6 7.7 82 1027.2 5.4 N 13.0 0.0 0.0
09:59 10.6 7.7 82 1027.3 4.5 NE 13.0 0.0 0.0
10:00 10.6 7.7 82 1027.1 6.9 NE 13.0 0.0 0.0
10:01 10.6 7.7 82 1027.2 6.9 NE 13.0 0.0 0.0
10:02 10.6 7.7 82 1027.2 6.9 NE 13.0 0.0 0.0
10:03 10.6 7.7 82 1027.1 6.9 NE 13.0 0.0 0.0
10:05 10.6 7.7 82 1027.1 6.9 NE 10.7 0.0 0.0
10:06 10.7 7.6 81 1027.1 8.3 NE 10.7 0.0 0.0
10:07 10.8 7.7 81 1027.1 4.5 NE 10.7 0.0 0.0
10:08 10.8 7.7 81 1027.2 8.3 NW 9.8 0.0 0.0
10:09 10.8 7.7 81 1027.2 6.0 NE 9.8 0.0 0.0
10:10 10.9 7.8 81 1027.2 9.8 NE 9.8 0.0 0.0
10:12 10.9 7.8 81 1027.1 9.2 NE 9.8 0.0 0.0
10:13 10.9 7.8 81 1027.1 8.3 N 9.8 0.0 0.0
10:15 11.0 7.9 81 1027.0 5.4 NE 9.8 0.0 0.0
10:16 11.0 8.0 82 1027.0 11.4 NE 11.4 0.0 0.0
10:17 11.0 8.0 82 1027.2 7.6 N 11.4 0.0 0.0
10:18 11.0 8.0 82 1027.1 6.0 N 11.4 0.0 0.0
10:19 11.0 8.0 82 1026.9 6.0 NE 11.4 0.0 0.0
10:20 11.0 8.0 82 1027.1 9.8 N 11.4 0.0 0.0
10:21 11.0 7.9 81 1027.0 7.6 N 11.4 0.0 0.0
10:22 11.0 7.9 81 1027.1 6.9 N 11.4 0.0 0.0
10:23 11.1 8.0 81 1027.0 6.9 NE 11.4 0.0 0.0
10:24 11.1 8.0 81 1026.9 6.0 N 11.4 0.0 0.0
10:25 11.1 8.0 81 1027.0 5.4 N 11.4 0.0 0.0
10:27 11.2 8.1 81 1027.1 6.0 N 9.8 0.0 0.0
10:28 11.3 8.2 81 1027.2 8.3 NW 9.8 0.0 0.0
10:29 11.3 8.3 82 1027.1 5.4 NE 9.8 0.0 0.0
10:30 11.4 8.3 81 1027.2 8.3 N 9.8 0.0 0.0
10:31 11.4 8.3 81 1027.1 8.3 NE 9.2 0.0 0.0
10:32 11.5 8.4 81 1027.1 6.9 NE 9.2 0.0 0.0
10:33 11.6 8.5 81 1027.1 8.3 NE 11.4 0.0 0.0
10:34 11.6 8.5 81 1027.1 9.8 NE 11.4 0.0 0.0
10:35 11.6 8.5 81 1027.2 10.7 NE 11.4 0.0 0.0
10:36 11.7 8.6 81 1027.0 10.7 NE 11.4 0.0 0.0
10:37 11.7 8.4 80 1027.0 11.4 N 11.4 0.0 0.0
10:38 11.8 8.6 81 1027.1 6.9 N 11.4 0.0 0.0
10:40 11.9 8.7 81 1027.1 3.1 N 11.4 0.0 0.0
10:41 12.0 9.0 82 1027.1 3.8 N 11.4 0.0 0.0
10:42 12.1 9.1 82 1027.1 6.0 N 11.4 0.0 0.0
10:43 12.2 9.2 82 1027.3 9.2 NE 11.4 0.0 0.0
10:44 12.4 9.2 81 1027.1 6.0 NE 11.4 0.0 0.0
10:45 12.4 9.0 80 1027.1 13.0 NE 13.0 0.0 0.0
10:46 12.4 9.0 80 1027.1 9.8 N 13.0 0.0 0.0
10:47 12.5 9.1 80 1027.1 7.6 N 13.0 0.0 0.0
10:48 12.5 9.0 79 1027.0 9.2 N 13.0 0.0 0.0
10:49 12.5 9.0 79 1027.1 10.7 NE 13.0 0.0 0.0
10:50 12.5 9.0 79 1027.0 9.8 N 13.0 0.0 0.0
10:51 12.6 9.1 79 1027.2 12.1 NE 13.0 0.0 0.0
10:52 12.6 9.1 79 1027.2 6.0 NE 13.0 0.0 0.0
10:53 12.6 9.1 79 1027.0 5.4 N 13.0 0.0 0.0
10:54 12.7 9.0 78 1027.0 8.3 N 13.0 0.0 0.0
10:56 12.7 9.0 78 1027.1 5.4 N 12.1 0.0 0.0
10:57 12.7 9.2 79 1027.2 3.8 N 12.1 0.0 0.0
10:58 12.8 9.3 79 1027.2 12.1 NE 12.1 0.0 0.0
10:59 12.8 9.1 78 1027.1 9.8 NE 12.1 0.0 0.0
11:00 12.9 9.0 77 1027.2 6.0 NE 12.1 0.0 0.0
11:01 12.9 9.0 77 1027.2 6.0 NE 12.1 0.0 0.0
11:02 12.8 8.7 76 1027.1 7.6 NE 12.1 0.0 0.0
11:03 12.9 9.0 77 1027.2 5.4 NE 12.1 0.0 0.0
11:04 12.9 9.2 78 1027.2 4.5 NE 12.1 0.0 0.0
11:05 13.1 9.2 77 1027.2 8.3 NE 12.1 0.0 0.0
11:06 13.1 9.2 77 1027.3 8.3 NE 12.1 0.0 0.0
11:07 13.2 9.1 76 1027.1 13.0 NE 13.0 0.0 0.0
11:08 13.2 9.1 76 1027.2 3.1 NE 13.0 0.0 0.0
11:09 13.3 9.2 76 1027.2 9.8 N 13.0 0.0 0.0
11:10 13.3 9.2 76 1027.2 4.5 NE 13.0 0.0 0.0
11:12 13.3 9.2 76 1027.1 3.1 NE 13.0 0.0 0.0
11:13 13.4 9.3 76 1027.3 6.0 N 13.0 0.0 0.0
11:14 13.5 9.6 77 1027.3 4.5 SE 13.0 0.0 0.0
11:15 13.5 9.6 77 1027.1 3.8 NE 13.0 0.0 0.0
11:16 13.6 9.6 77 1027.1 6.0 NE 13.0 0.0 0.0
11:17 13.7 9.7 77 1027.1 6.0 NE 13.0 0.0 0.0
11:18 13.7 9.6 76 1027.0 4.5 N 9.8 0.0 0.0
11:19 13.7 9.6 76 1027.1 7.6 NE 9.8 0.0 0.0
11:20 13.6 9.3 75 1027.0 9.2 NE 9.2 0.0 0.0
11:21 13.6 9.3 75 1027.1 4.5 N 9.2 0.0 0.0
11:22 13.6 9.3 75 1027.1 4.5 NE 9.2 0.0 0.0
11:23 13.7 9.6 76 1026.8 9.8 NE 9.8 0.0 0.0
11:24 13.7 9.6 76 1026.9 8.3 N 9.8 0.0 0.0
11:25 13.8 9.5 75 1026.9 5.4 N 9.8 0.0 0.0
11:26 13.8 9.3 74 1026.9 6.9 NE 9.8 0.0 0.0
11:28 14.0 9.2 73 1027.1 8.3 N 9.8 0.0 0.0
11:29 13.9 8.9 72 1027.0 9.2 NE 9.8 0.0 0.0
11:30 13.9 8.9 72 1027.0 7.6 NE 9.8 0.0 0.0
11:31 13.9 8.9 72 1027.0 6.0 NE 9.8 0.0 0.0
11:32 13.9 8.9 72 1026.9 12.1 NE 12.1 0.0 0.0
11:33 13.9 8.7 71 1027.1 13.0 N 13.0 0.0 0.0
11:34 13.9 8.7 71 1027.0 6.0 NE 13.0 0.0 0.0
11:35 13.9 8.9 72 1027.0 6.9 NE 13.0 0.0 0.0
11:36 13.9 8.9 72 1026.9 6.9 NE 13.0 0.0 0.0
11:37 14.0 9.0 72 1026.9 9.2 NE 13.0 0.0 0.0
11:38 14.0 9.0 72 1027.1 7.6 NE 13.0 0.0 0.0
11:39 14.0 8.8 71 1027.0 8.3 NE 13.0 0.0 0.0
11:40 14.0 8.8 71 1027.0 9.2 NE 13.0 0.0 0.0
11:41 13.9 8.5 70 1027.0 8.3 NE 13.0 0.0 0.0
11:42 13.9 8.9 72 1027.0 3.8 N 13.0 0.0 0.0
11:44 13.9 8.9 72 1026.9 9.2 NE 13.0 0.0 0.0
11:45 14.0 9.0 72 1027.0 6.9 NE 13.0 0.0 0.0
11:46 14.0 8.8 71 1027.1 8.3 N 13.0 0.0 0.0
11:47 14.0 8.8 71 1027.1 3.1 N 13.0 0.0 0.0
11:48 14.0 8.6 70 1027.1 7.6 N 13.0 0.0 0.0
11:49 14.0 8.8 71 1027.1 6.0 N 13.0 0.0 0.0
11:50 14.0 8.8 71 1026.9 6.0 NE 13.0 0.0 0.0
11:51 14.0 8.8 71 1027.1 5.4 N 13.0 0.0 0.0
11:52 14.1 8.9 71 1027.0 6.0 N 9.2 0.0 0.0
11:53 14.1 8.7 70 1027.1 8.3 N 9.2 0.0 0.0
11:54 14.1 8.7 70 1027.0 7.6 N 9.2 0.0 0.0
11:55 14.1 8.7 70 1027.3 10.7 NE 10.7 0.0 0.0
11:56 14.1 8.7 70 1027.1 9.8 N 10.7 0.0 0.0
11:57 14.1 8.5 69 1027.1 9.8 NE 12.1 0.0 0.0
11:58 14.0 8.6 70 1027.1 8.3 NE 12.1 0.0 0.0
12:00 14.0 8.8 71 1027.1 6.0 NE 12.1 0.0 0.0
12:01 14.0 8.8 71 1027.1 6.0 NE 12.1 0.0 0.0
12:02 14.0 8.8 71 1027.0 6.0 N 12.1 0.0 0.0
12:03 14.0 8.8 71 1027.0 7.6 NE 12.1 0.0 0.0
12:04 13.9 8.9 72 1027.0 7.6 NE 12.1 0.0 0.0
12:05 13.9 9.1 73 1027.0 8.3 E 12.1 0.0 0.0
12:06 13.9 9.1 73 1027.1 4.5 NE 12.1 0.0 0.0
12:07 13.9 9.3 74 1027.0 6.9 N 9.8 0.0 0.0
12:08 13.9 9.1 73 1027.1 6.9 NE 8.3 0.0 0.0
12:10 14.0 9.4 74 1027.1 8.3 N 9.2 0.0 0.0
12:11 14.1 9.5 74 1027.1 3.1 NE 9.2 0.0 0.0
12:13 14.1 9.5 74 1027.0 5.4 N 9.2 0.0 0.0
12:14 14.2 9.6 74 1027.0 5.4 N 9.2 0.0 0.0
12:15 14.2 9.6 74 1027.1 6.9 N 9.2 0.0 0.0
12:17 14.1 9.5 74 1027.2 5.4 N 9.2 0.0 0.0
12:18 14.1 9.5 74 1027.2 4.5 E 9.2 0.0 0.0
12:19 14.1 9.5 74 1027.1 6.9 NE 9.2 0.0 0.0
12:20 14.0 9.4 74 1027.1 6.0 NE 9.2 0.0 0.0
12:21 14.0 9.4 74 1027.0 3.1 E 9.2 0.0 0.0
12:22 14.0 9.6 75 1026.9 6.0 NE 9.2 0.0 0.0
12:23 14.1 9.9 76 1026.9 5.4 N 9.2 0.0 0.0
12:24 14.2 9.8 75 1026.9 6.0 NE 9.2 0.0 0.0
12:25 14.2 9.6 74 1026.9 8.3 N 9.2 0.0 0.0
12:26 14.2 9.6 74 1027.0 6.0 NE 9.2 0.0 0.0
12:27 14.2 9.6 74 1026.9 6.0 N 9.2 0.0 0.0
12:28 14.2 9.6 74 1026.9 6.0 N 9.2 0.0 0.0
12:29 14.2 9.6 74 1026.9 5.4 SE 9.2 0.0 0.0
12:30 14.2 9.6 74 1026.9 6.9 N 8.3 0.0 0.0
12:32 14.3 10.1 76 1026.8 7.6 N 9.8 0.0 0.0
12:33 14.3 9.9 75 1026.9 4.5 NE 9.8 0.0 0.0
12:34 14.4 10.0 75 1026.9 5.4 NE 9.8 0.0 0.0
12:35 14.4 10.0 75 1026.7 5.4 NE 9.8 0.0 0.0
12:36 14.5 10.1 75 1026.8 6.0 NE 9.8 0.0 0.0
12:37 14.5 10.3 76 1026.9 6.0 NE 9.8 0.0 0.0
12:38 14.6 10.4 76 1026.7 7.6 NE 9.8 0.0 0.0
12:39 14.7 10.3 75 1026.8 5.4 N 9.8 0.0 0.0
12:41 14.7 10.1 74 1026.8 7.6 NE 9.8 0.0 0.0
12:42 14.7 10.1 74 1026.7 5.4 N 7.6 0.0 0.0
12:43 14.7 10.1 74 1026.7 9.8 NE 9.8 0.0 0.0
12:44 14.7 10.1 74 1026.7 5.4 NE 9.8 0.0 0.0
12:45 14.6 9.8 73 1026.8 5.4 E 9.8 0.0 0.0
12:46 14.6 9.8 73 1026.6 5.4 E 9.8 0.0 0.0
12:47 14.5 9.7 73 1026.7 6.0 N 9.8 0.0 0.0
12:48 14.5 9.9 74 1026.7 7.6 NE 9.8 0.0 0.0
12:49 14.6 10.0 74 1026.7 5.4 N 9.8 0.0 0.0
12:50 14.6 10.0 74 1026.6 4.5 SW 9.8 0.0 0.0
12:51 14.6 10.0 74 1026.7 6.9 N 9.8 0.0 0.0
12:53 14.5 9.9 74 1026.7 4.5 N 8.3 0.0 0.0
12:54 14.5 9.9 74 1026.8 4.5 N 8.3 0.0 0.0
12:55 14.6 10.0 74 1026.7 5.4 N 8.3 0.0 0.0
12:56 14.6 10.0 74 1026.7 3.8 N 8.3 0.0 0.0
12:57 14.6 10.0 74 1026.8 4.5 N 8.3 0.0 0.0
12:59 14.6 9.8 73 1026.8 5.4 N 8.3 0.0 0.0
13:00 14.6 10.0 74 1026.8 6.9 N 6.9 0.0 0.0
13:01 14.6 10.0 74 1026.8 8.3 NE 8.3 0.0 0.0
13:02 14.6 10.0 74 1026.8 6.0 N 8.3 0.0 0.0
13:03 14.6 10.0 74 1026.8 4.5 NE 8.3 0.0 0.0
13:04 14.6 10.0 74 1026.8 5.4 E 8.3 0.0 0.0
13:06 14.6 10.0 74 1026.7 5.4 NE 8.3 0.0 0.0
13:07 14.7 10.1 74 1026.8 6.9 NE 8.3 0.0 0.0
13:08 14.7 10.3 75 1026.8 4.5 NE 8.3 0.0 0.0
13:09 14.8 10.2 74 1026.7 6.0 NE 8.3 0.0 0.0
13:10 14.8 10.2 74 1026.8 3.8 E 8.3 0.0 0.0
13:11 14.8 10.0 73 1026.9 4.5 N 8.3 0.0 0.0
13:12 14.8 10.2 74 1026.7 4.5 N 7.6 0.0 0.0
13:13 14.8 10.2 74 1026.6 3.8 N 7.6 0.0 0.0
13:14 14.9 10.3 74 1026.6 4.5 N 7.6 0.0 0.0
13:15 14.8 10.0 73 1026.8 8.3 E 8.3 0.0 0.0
13:16 14.8 10.0 73 1026.8 5.4 N 8.3 0.0 0.0
13:18 14.7 9.9 73 1026.8 4.5 N 8.3 0.0 0.0
13:19 14.7 9.9 73 1026.8 5.4 NE 8.3 0.0 0.0
13:20 14.7 9.9 73 1026.8 4.5 NE 8.3 0.0 0.0
13:21 14.7 9.9 73 1026.8 6.0 E 8.3 0.0 0.0
13:22 14.7 9.9 73 1026.9 6.0 E 8.3 0.0 0.0
13:23 14.7 10.1 74 1026.9 3.8 NE 8.3 0.0 0.0
13:24 14.8 10.2 74 1026.9 4.5 NE 8.3 0.0 0.0
13:25 14.8 10.4 75 1026.8 5.4 NE 6.0 0.0 0.0
13:26 14.9 10.5 75 1026.9 7.6 NE 7.6 0.0 0.0
13:28 15.0 10.4 74 1026.8 6.9 N 7.6 0.0 0.0
13:29 15.0 10.2 73 1026.9 6.0 NE 7.6 0.0 0.0
13:30 15.0 10.2 73 1026.8 3.1 N 7.6 0.0 0.0
13:31 15.0 9.8 71 1026.8 4.5 N 7.6 0.0 0.0
13:32 14.9 10.1 73 1026.8 3.8 N 7.6 0.0 0.0
13:33 15.0 10.4 74 1026.8 9.2 NE 9.2 0.0 0.0
13:34 15.0 10.4 74 1026.8 7.6 N 9.2 0.0 0.0
13:35 15.1 10.5 74 1026.8 6.0 NE 9.2 0.0 0.0
13:37 15.2 10.4 73 1026.8 5.4 E 9.2 0.0 0.0
13:38 15.2 10.4 73 1026.8 6.9 NE 9.2 0.0 0.0
13:39 15.2 10.2 72 1026.8 5.4 N 9.2 0.0 0.0
13:40 15.2 10.2 72 1026.8 5.4 NE 9.2 0.0 0.0
13:41 15.2 10.2 72 1026.9 3.8 NE 9.2 0.0 0.0
13:42 15.2 10.4 73 1026.8 3.8 E 9.2 0.0 0.0
13:43 15.2 10.6 74 1026.9 5.4 NE 9.2 0.0 0.0
13:45 15.4 10.8 74 1026.8 4.5 NE 6.9 0.0 0.0
13:46 15.4 10.6 73 1026.9 6.9 NE 6.9 0.0 0.0
13:47 15.5 10.5 72 1026.6 9.2 WSW 9.2 0.0 0.0
13:48 15.5 10.5 72 1026.7 7.6 NE 9.2 0.0 0.0
13:49 15.5 10.5 72 1026.7 6.0 WNW 9.2 0.0 0.0
13:50 15.4 10.4 72 1026.6 5.4 E 9.2 0.0 0.0
13:51 15.4 10.4 72 1026.5 5.4 N 9.2 0.0 0.0
13:52 15.4 10.2 71 1026.6 6.0 NE 9.2 0.0 0.0
13:53 15.4 10.4 72 1026.6 4.5 E 9.2 0.0 0.0
13:54 15.4 10.4 72 1026.7 6.9 N 9.2 0.0 0.0
13:55 15.4 10.4 72 1026.7 6.0 N 9.2 0.0 0.0
13:56 15.4 10.6 73 1026.6 3.8 N 9.2 0.0 0.0
13:57 15.4 10.4 72 1026.6 4.5 NE 9.2 0.0 0.0
13:59 15.5 10.5 72 1026.6 5.4 N 9.2 0.0 0.0
14:00 15.5 10.5 72 1026.5 4.5 NE 9.2 0.0 0.0
14:01 15.5 10.5 72 1026.6 4.5 NE 6.9 0.0 0.0
14:02 15.5 10.5 72 1026.7 6.9 N 6.9 0.0 0.0
14:03 15.5 10.5 72 1026.6 5.4 NE 6.9 0.0 0.0
14:04 15.5 10.3 71 1026.6 3.8 N 6.9 0.0 0.0
14:05 15.6 10.4 71 1026.6 4.5 N 6.9 0.0 0.0
14:06 15.5 10.3 71 1026.7 6.9 S 6.9 0.0 0.0
14:07 15.5 10.1 70 1026.7 4.5 E 6.9 0.0 0.0
14:08 15.5 10.5 72 1026.6 3.8 E 6.9 0.0 0.0
14:10 15.5 10.5 72 1026.6 6.9 E 6.9 0.0 0.0
14:11 15.5 10.7 73 1026.7 5.4 SE 6.9 0.0 0.0
14:13 15.6 10.4 71 1026.4 4.5 NE 6.9 0.0 0.0
14:14 15.7 10.7 72 1026.5 8.3 NE 8.3 0.0 0.0
14:16 15.7 10.5 71 1026.5 5.4 NE 8.3 0.0 0.0
14:17 15.7 10.7 72 1026.4 3.8 NE 8.3 0.0 0.0
14:18 15.8 10.8 72 1026.5 8.3 N 8.3 0.0 0.0
14:19 15.7 10.7 72 1026.5 4.5 NE 8.3 0.0 0.0
14:20 15.7 10.7 72 1026.3 4.5 NE 8.3 0.0 0.0
14:21 15.7 10.5 71 1026.5 6.0 NE 8.3 0.0 0.0
14:22 15.8 10.8 72 1026.3 5.4 N 8.3 0.0 0.0
14:23 15.8 10.8 72 1026.4 4.5 NE 8.3 0.0 0.0
14:24 15.7 10.5 71 1026.4 5.4 E 9.2 0.0 0.0
14:25 15.7 10.9 73 1026.5 7.6 NE 9.2 0.0 0.0
14:26 15.7 10.7 72 1026.5 3.8 E 9.2 0.0 0.0
14:28 15.7 10.7 72 1026.4 5.4 N 9.2 0.0 0.0
14:29 15.7 10.5 71 1026.5 8.3 N 9.2 0.0 0.0
14:30 15.7 10.5 71 1026.5 3.8 N 9.2 0.0 0.0
14:31 15.7 10.7 72 1026.5 5.4 N 9.2 0.0 0.0
14:32 15.7 10.5 71 1026.4 7.6 SE 9.2 0.0 0.0
14:33 15.7 10.5 71 1026.5 6.0 SE 9.2 0.0 0.0
14:34 15.8 10.8 72 1026.4 3.8 NE 8.3 0.0 0.0
14:35 15.8 10.8 72 1026.5 3.8 NE 8.3 0.0 0.0
14:36 15.8 10.3 70 1026.4 6.0 N 8.3 0.0 0.0
14:37 15.8 10.1 69 1026.4 6.9 N 8.3 0.0 0.0
14:38 15.8 10.1 69 1026.5 9.2 NE 9.2 0.0 0.0
14:39 15.7 10.0 69 1026.6 6.0 NE 9.2 0.0 0.0
14:41 15.7 10.3 70 1026.6 6.0 NE 9.2 0.0 0.0
14:42 15.8 10.3 70 1026.5 6.0 NE 9.2 0.0 0.0
14:43 15.8 10.6 71 1026.7 6.9 NE 9.2 0.0 0.0
14:44 15.9 10.7 71 1026.7 5.4 N 9.2 0.0 0.0
14:45 15.9 10.2 69 1026.7 3.8 N 9.2 0.0 0.0
14:46 15.9 10.2 69 1026.6 4.5 N 9.2 0.0 0.0
14:47 15.9 10.4 70 1026.6 4.5 NE 9.2 0.0 0.0
14:48 15.9 10.4 70 1026.6 3.8 NE 9.2 0.0 0.0
14:49 15.9 10.0 68 1026.5 6.0 NE 6.9 0.0 0.0
14:50 15.9 10.2 69 1026.5 6.0 E 6.9 0.0 0.0
14:51 15.9 10.7 71 1026.5 7.6 NE 7.6 0.0 0.0
14:52 16.0 10.3 69 1026.6 4.5 NE 7.6 0.0 0.0
14:53 16.0 10.5 70 1026.5 2.2 NE 7.6 0.0 0.0
14:55 16.0 10.8 71 1026.5 6.9 NE 7.6 0.0 0.0
14:56 16.1 10.4 69 1026.5 3.8 NE 8.3 0.0 0.0
14:57 16.1 10.0 67 1026.6 4.5 N 8.3 0.0 0.0
14:58 16.1 10.2 68 1026.6 4.5 N 8.3 0.0 0.0
14:59 16.1 10.0 67 1026.6 3.8 E 8.3 0.0 0.0
15:00 16.1 10.0 67 1026.5 3.1 NE 8.3 0.0 0.0
15:02 16.1 10.0 67 1026.6 3.1 NE 8.3 0.0 0.0
15:04 16.1 10.0 67 1026.6 3.1 NE 8.3 0.0 0.0
15:06 15.6 9.3 66 1026.7 6.9 NE 6.9 0.0 0.0
15:07 15.5 9.4 67 1026.7 3.8 NE 6.9 0.0 0.0
15:08 15.4 9.3 67 1026.5 4.5 NE 6.9 0.0 0.0
15:09 15.3 9.4 68 1026.6 4.5 NE 6.9 0.0 0.0
15:10 15.3 9.4 68 1026.7 5.4 NE 6.9 0.0 0.0
15:11 15.3 9.4 68 1026.6 6.9 NE 6.9 0.0 0.0
15:13 15.2 9.3 68 1026.6 4.5 NE 6.9 0.0 0.0
15:14 15.2 9.1 67 1026.6 4.5 NE 6.9 0.0 0.0
15:15 15.2 9.3 68 1026.6 6.9 NE 6.9 0.0 0.0
15:16 15.1 9.5 69 1026.5 3.1 SE 6.9 0.0 0.0
15:17 15.1 9.5 69 1026.5 3.8 NE 6.9 0.0 0.0
15:18 15.1 9.5 69 1026.5 2.2 NE 6.9 0.0 0.0
15:19 15.0 9.4 69 1026.5 4.5 NE 6.9 0.0 0.0
15:20 14.9 9.3 69 1026.4 3.8 NE 6.9 0.0 0.0
15:21 14.9 9.3 69 1026.5 3.8 NE 6.9 0.0 0.0
15:22 14.8 9.4 70 1026.5 3.1 NE 6.9 0.0 0.0
15:23 14.8 9.4 70 1026.4 5.4 NE 6.9 0.0 0.0
15:24 14.8 9.4 70 1026.5 3.1 NE 6.9 0.0 0.0
15:25 14.8 9.4 70 1026.4 4.5 NE 6.0 0.0 0.0
15:27 14.8 9.4 70 1026.4 7.6 N 7.6 0.0 0.0
15:28 14.8 9.4 70 1026.3 7.6 E 7.6 0.0 0.0
15:29 14.7 9.3 70 1026.3 3.8 NE 7.6 0.0 0.0
15:30 14.8 9.6 71 1026.3 4.5 NE 7.6 0.0 0.0
15:31 14.8 9.4 70 1026.4 8.3 N 8.3 0.0 0.0
15:32 14.8 9.4 70 1026.3 3.1 NE 8.3 0.0 0.0
15:33 14.7 9.3 70 1026.3 4.5 NE 8.3 0.0 0.0
15:34 14.7 9.3 70 1026.3 6.0 N 8.3 0.0 0.0
15:35 14.7 9.1 69 1026.5 6.0 N 8.3 0.0 0.0
15:36 14.6 9.2 70 1026.4 3.8 NE 8.3 0.0 0.0
15:37 14.5 9.1 70 1026.4 9.2 NE 9.2 0.0 0.0
15:38 14.5 9.1 70 1026.4 6.9 NE 9.2 0.0 0.0
15:39 14.4 9.0 70 1026.4 3.8 NE 9.2 0.0 0.0
15:40 14.4 9.0 70 1026.3 3.8 NE 9.2 0.0 0.0
15:42 14.3 9.1 71 1026.1 3.1 N 9.2 0.0 0.0
15:43 14.2 9.0 71 1026.4 4.5 N 9.2 0.0 0.0
15:44 14.2 9.0 71 1026.3 5.4 NE 9.2 0.0 0.0
15:45 14.2 9.0 71 1026.2 4.5 N 9.2 0.0 0.0
15:46 14.0 8.8 71 1026.3 3.8 N 9.2 0.0 0.0
15:47 14.0 8.8 71 1026.3 4.5 N 9.2 0.0 0.0
15:48 13.9 8.7 71 1026.4 3.1 N 6.9 0.0 0.0
15:49 13.8 8.6 71 1026.5 5.4 N 6.9 0.0 0.0
15:50 13.8 8.6 71 1026.4 6.9 N 6.9 0.0 0.0
15:52 13.7 8.5 71 1026.3 5.4 NE 8.3 0.0 0.0
15:53 13.7 8.7 72 1026.5 3.8 N 8.3 0.0 0.0
15:54 13.6 8.7 72 1026.5 5.4 NE 8.3 0.0 0.0
15:55 13.6 8.7 72 1026.5 5.4 NE 8.3 0.0 0.0
15:56 13.5 8.6 72 1026.5 5.4 N 8.3 0.0 0.0
15:57 13.5 8.6 72 1026.5 6.9 N 8.3 0.0 0.0
15:58 13.4 8.5 72 1026.4 3.1 N 8.3 0.0 0.0
15:59 13.4 8.5 72 1026.4 4.5 NE 8.3 0.0 0.0
16:00 13.4 8.5 72 1026.4 4.5 NE 8.3 0.0 0.0
16:01 13.4 8.3 71 1026.5 3.8 NE 6.9 0.0 0.0
16:02 13.3 8.4 72 1026.4 3.1 NE 6.9 0.0 0.0
16:03 13.3 8.4 72 1026.4 2.2 NE 6.9 0.0 0.0
16:05 13.3 8.4 72 1026.4 3.1 NE 6.9 0.0 0.0
16:06 13.3 8.2 71 1026.4 3.1 NE 6.9 0.0 0.0
16:07 13.4 8.3 71 1026.5 3.8 NE 6.0 0.0 0.0
16:08 13.4 8.3 71 1026.5 7.6 NE 7.6 0.0 0.0
16:09 13.4 8.3 71 1026.5 7.6 NE 7.6 0.0 0.0
16:11 13.4 8.0 70 1026.3 4.5 NE 9.8 0.0 0.0
16:12 13.6 8.2 70 1026.3 6.9 NE 9.8 0.0 0.0
16:13 13.6 8.0 69 1026.3 7.6 N 9.8 0.0 0.0
16:15 13.7 8.1 69 1026.3 5.4 NE 9.8 0.0 0.0
16:16 13.9 8.5 70 1026.2 3.8 NE 9.8 0.0 0.0
16:18 14.2 8.2 67 1026.2 7.6 N 9.8 0.0 0.0
16:19 14.3 8.0 66 1026.3 6.9 NE 9.8 0.0 0.0
16:20 14.4 8.1 66 1026.2 6.9 NE 9.8 0.0 0.0
16:21 14.5 7.8 64 1026.2 5.4 N 9.8 0.0 0.0
16:22 14.6 8.1 65 1026.2 7.6 NE 9.8 0.0 0.0
16:24 14.7 8.0 64 1026.2 6.9 NE 9.8 0.0 0.0
16:25 14.7 8.0 64 1026.2 6.9 NE 9.8 0.0 0.0
16:26 14.9 8.4 65 1026.2 5.4 NE 9.8 0.0 0.0
16:27 15.0 8.5 65 1026.3 4.5 NE 8.3 0.0 0.0
16:28 15.0 8.5 65 1026.1 3.8 NE 8.3 0.0 0.0
16:29 15.2 8.4 64 1026.3 3.1 N 8.3 0.0 0.0
16:30 15.3 8.5 64 1026.2 8.3 NE 8.3 0.0 0.0
16:31 15.3 7.6 60 1026.3 9.2 NE 9.2 0.0 0.0
16:33 15.4 7.9 61 1026.2 6.9 NE 9.2 0.0 0.0
16:34 15.4 7.9 61 1026.2 7.6 NE 9.2 0.0 0.0
16:35 15.4 7.7 60 1026.1 8.3 NE 9.2 0.0 0.0
16:36 15.4 7.4 59 1026.2 10.7 NE 10.7 0.0 0.0
16:37 15.4 7.7 60 1026.0 5.4 NE 10.7 0.0 0.0
16:38 15.4 7.7 60 1026.2 8.3 NE 10.7 0.0 0.0
16:39 15.4 7.7 60 1026.2 4.5 NE 10.7 0.0 0.0
16:40 15.5 8.3 62 1026.1 4.5 NE 10.7 0.0 0.0
16:41 15.5 7.5 59 1026.2 6.0 NE 10.7 0.0 0.0
16:42 15.5 7.5 59 1026.3 3.1 E 10.7 0.0 0.0
16:43 15.5 7.8 60 1026.2 6.0 NE 10.7 0.0 0.0
16:45 15.5 8.0 61 1026.2 3.1 E 10.7 0.0 0.0
16:46 15.5 8.0 61 1026.3 3.8 NE 10.7 0.0 0.0
16:47 15.6 7.6 59 1026.0 6.9 NE 8.3 0.0 0.0
16:48 15.6 6.9 56 1026.1 3.1 NE 8.3 0.0 0.0
16:49 15.5 6.5 55 1026.1 6.0 N 6.9 0.0 0.0
16:50 15.5 7.0 57 1026.0 4.5 NE 6.9 0.0 0.0
16:51 15.5 7.3 58 1026.2 5.4 N 6.9 0.0 0.0
16:52 15.4 6.4 55 1026.1 3.8 NE 6.9 0.0 0.0
16:53 15.4 6.4 55 1026.0 3.8 NE 6.9 0.0 0.0
16:54 15.3 6.6 56 1026.2 5.4 NE 6.9 0.0 0.0
16:55 15.3 6.6 56 1026.2 6.9 N 6.9 0.0 0.0
16:56 15.2 6.7 57 1026.2 3.1 NE 6.9 0.0 0.0
16:58 15.1 6.9 58 1026.2 3.1 E 6.9 0.0 0.0
16:59 15.0 6.6 57 1026.1 3.8 NE 6.9 0.0 0.0
17:00 15.0 6.8 58 1026.3 3.8 NE 6.9 0.0 0.0
17:01 15.0 6.8 58 1026.3 3.8 NE 6.9 0.0 0.0
17:02 15.0 6.8 58 1026.2 1.6 NE 6.9 0.0 0.0
17:03 15.0 6.8 58 1026.2 4.5 NE 6.9 0.0 0.0
17:04 15.0 6.8 58 1026.3 6.0 NE 6.9 0.0 0.0
17:05 15.1 7.2 59 1026.1 8.3 NE 8.3 0.0 0.0
17:06 15.1 7.2 59 1026.2 6.0 NE 8.3 0.0 0.0
17:07 15.1 7.2 59 1026.2 4.5 NE 8.3 0.0 0.0
17:08 15.2 6.7 57 1026.3 4.5 NE 8.3 0.0 0.0
17:10 15.2 6.7 57 1026.2 3.1 NE 8.3 0.0 0.0
17:11 15.2 6.7 57 1026.3 3.8 NE 8.3 0.0 0.0
17:12 15.3 6.8 57 1026.1 4.5 NE 8.3 0.0 0.0
17:13 15.3 6.8 57 1026.1 3.1 NE 8.3 0.0 0.0
17:14 15.3 6.8 57 1026.2 5.4 SE 8.3 0.0 0.0
17:15 15.3 6.8 57 1026.1 2.2 NE 8.3 0.0 0.0
17:16 15.4 6.9 57 1026.2 5.4 N 6.0 0.0 0.0
17:17 15.4 7.2 58 1026.4 5.4 N 5.4 0.0 0.0
17:18 15.5 7.0 57 1026.3 4.5 N 5.4 0.0 0.0
17:19 15.5 7.0 57 1026.2 5.4 NE 5.4 0.0 0.0
17:20 15.5 7.0 57 1026.2 2.2 NE 5.4 0.0 0.0
17:21 15.6 7.1 57 1026.3 3.8 NE 5.4 0.0 0.0
17:23 15.6 7.1 57 1026.3 4.5 NE 5.4 0.0 0.0
17:24 15.6 7.1 57 1026.2 3.8 NE 5.4 0.0 0.0
17:25 15.6 7.4 58 1026.2 4.5 NE 5.4 0.0 0.0
17:26 15.6 7.1 57 1026.3 4.5 NE 5.4 0.0 0.0
17:27 15.7 7.5 58 1026.2 3.8 NE 5.4 0.0 0.0
17:28 15.7 7.2 57 1026.3 3.1 NE 5.4 0.0 0.0
17:29 15.7 7.2 57 1026.1 2.2 NE 4.5 0.0 0.0
17:30 15.7 7.2 57 1026.3 5.4 NE 5.4 0.0 0.0
17:31 15.7 7.5 58 1026.3 3.8 NE 5.4 0.0 0.0
17:32 15.8 7.6 58 1026.3 2.2 NE 5.4 0.0 0.0
17:33 15.9 7.1 56 1026.2 2.2 NE 5.4 0.0 0.0
17:34 15.9 7.4 57 1026.2 2.2 NE 5.4 0.0 0.0
17:36 15.9 7.1 56 1026.4 3.8 SE 5.4 0.0 0.0
17:37 15.9 7.4 57 1026.3 3.8 N 5.4 0.0 0.0
17:38 15.9 6.9 55 1026.2 3.1 N 5.4 0.0 0.0
17:39 15.9 6.9 55 1026.2 3.1 NE 5.4 0.0 0.0
17:40 15.9 7.1 56 1026.3 3.8 NE 5.4 0.0 0.0
17:41 15.8 7.0 56 1026.3 3.1 NE 4.5 0.0 0.0
17:42 15.8 7.3 57 1026.2 1.6 E 4.5 0.0 0.0
17:43 15.8 7.3 57 1026.1 3.1 E 4.5 0.0 0.0
17:44 15.8 7.0 56 1026.1 3.1 E 4.5 0.0 0.0
17:45 15.8 7.0 56 1026.1 3.1 E 3.8 0.0 0.0
17:46 15.8 7.3 57 1026.1 7.6 NE 7.6 0.0 0.0
17:47 15.8 6.8 55 1026.2 3.8 SE 7.6 0.0 0.0
17:49 15.7 7.0 56 1026.1 4.5 E 7.6 0.0 0.0
17:50 15.7 7.0 56 1026.2 3.1 SE 7.6 0.0 0.0
17:51 15.6 6.6 55 1026.1 3.1 NE 7.6 0.0 0.0
17:52 15.6 6.6 55 1026.1 3.8 NE 7.6 0.0 0.0
17:53 15.6 6.6 55 1026.1 3.1 NE 7.6 0.0 0.0
17:54 15.5 6.8 56 1026.0 3.8 NE 7.6 0.0 0.0
17:55 15.5 6.8 56 1026.0 3.8 NE 7.6 0.0 0.0
17:56 15.5 7.0 57 1026.0 3.8 NE 7.6 0.0 0.0
17:57 15.5 7.0 57 1026.0 3.1 NE 4.5 0.0 0.0
17:58 15.5 6.8 56 1026.1 6.9 NE 6.9 0.0 0.0
17:59 15.5 6.8 56 1025.9 5.4 NE 6.9 0.0 0.0
18:00 15.5 6.8 56 1025.9 4.5 NE 6.9 0.0 0.0
18:02 15.5 6.8 56 1026.1 4.5 NE 6.9 0.0 0.0
18:03 15.5 6.8 56 1026.0 4.5 NE 6.9 0.0 0.0
18:04 15.5 6.8 56 1026.1 4.5 NE 6.9 0.0 0.0
18:05 15.5 6.8 56 1026.2 4.5 NE 6.9 0.0 0.0
18:06 15.6 6.9 56 1026.0 3.8 SE 6.9 0.0 0.0
18:07 15.6 6.6 55 1026.1 3.8 NE 6.9 0.0 0.0
18:08 15.6 6.6 55 1026.1 2.2 NE 6.9 0.0 0.0
18:09 15.6 6.6 55 1026.0 2.2 NE 4.5 0.0 0.0
18:11 15.6 6.6 55 1026.0 2.2 NE 4.5 0.0 0.0
18:12 15.5 6.2 54 1026.0 4.5 E 4.5 0.0 0.0
18:14 15.5 6.5 55 1026.0 5.4 NE 5.4 0.0 0.0
18:15 15.5 6.2 54 1026.1 3.1 NE 5.4 0.0 0.0
18:17 15.5 6.2 54 1026.1 3.1 NE 5.4 0.0 0.0
18:18 15.6 6.3 54 1026.0 3.1 NE 5.4 0.0 0.0
18:19 15.6 6.3 54 1026.0 5.4 NE 5.4 0.0 0.0
18:20 15.6 6.1 53 1025.9 3.1 SE 5.4 0.0 0.0
18:21 15.6 5.8 52 1026.0 2.2 SE 5.4 0.0 0.0
18:22 15.6 6.1 53 1025.9 2.2 SE 5.4 0.0 0.0
18:23 15.6 6.1 53 1025.9 3.8 NE 5.4 0.0 0.0
18:25 15.6 6.1 53 1025.9 2.2 NE 5.4 0.0 0.0
18:26 15.6 6.1 53 1026.0 5.4 NE 5.4 0.0 0.0
18:27 15.7 5.6 51 1026.0 3.8 NE 5.4 0.0 0.0
18:28 15.7 5.6 51 1026.1 3.1 NE 5.4 0.0 0.0
18:29 15.7 5.3 50 1026.0 3.8 NE 5.4 0.0 0.0
18:30 15.7 5.3 50 1026.0 3.8 NE 5.4 0.0 0.0
18:31 15.7 5.3 50 1025.9 6.9 NE 8.3 0.0 0.0
18:32 15.7 5.3 50 1025.9 3.1 NE 8.3 0.0 0.0
18:33 15.7 5.3 50 1026.0 5.4 NE 8.3 0.0 0.0
18:34 15.7 5.0 49 1026.0 3.8 NE 8.3 0.0 0.0
18:35 15.7 5.3 50 1025.9 2.2 NE 8.3 0.0 0.0
18:36 15.7 5.3 50 1025.9 3.8 NE 8.3 0.0 0.0
18:38 15.7 5.3 50 1025.8 3.1 NE 8.3 0.0 0.0
18:39 15.8 6.0 52 1025.9 4.5 NE 8.3 0.0 0.0
18:40 15.8 5.7 51 1026.2 3.8 NE 8.3 0.0 0.0
18:41 15.8 5.7 51 1026.0 2.2 NE 6.9 0.0 0.0
18:42 15.8 5.7 51 1026.0 2.2 NE 5.4 0.0 0.0
18:43 15.8 5.4 50 1026.0 3.1 NE 5.4 0.0 0.0
18:45 15.8 5.4 50 1025.9 2.2 E 4.5 0.0 0.0
18:46 15.8 5.1 49 1025.9 3.1 NE 4.5 0.0 0.0
18:47 15.8 5.1 49 1025.9 2.2 NE 4.5 0.0 0.0
18:48 15.8 5.1 49 1025.9 2.2 NE 4.5 0.0 0.0
18:49 15.8 5.1 49 1026.0 3.1 NE 3.8 0.0 0.0
18:50 15.7 5.3 50 1025.9 2.2 NE 3.8 0.0 0.0
18:52 15.7 5.3 50 1026.0 2.2 NE 3.8 0.0 0.0
18:53 15.7 5.0 49 1025.9 4.5 NE 4.5 0.0 0.0
18:54 15.7 5.3 50 1025.9 2.2 NE 4.5 0.0 0.0
18:55 15.7 5.3 50 1025.9 2.2 NE 4.5 0.0 0.0
18:56 15.7 5.0 49 1025.9 3.8 NE 4.5 0.0 0.0
18:57 15.7 5.0 49 1026.0 3.8 NE 4.5 0.0 0.0
18:58 15.7 5.0 49 1026.1 3.1 NE 4.5 0.0 0.0
18:59 15.7 4.7 48 1026.0 6.0 NE 6.0 0.0 0.0
19:00 15.7 4.7 48 1025.9 5.4 NE 6.0 0.0 0.0
19:02 15.7 4.7 48 1026.1 2.2 NE 6.0 0.0 0.0
19:03 15.7 4.7 48 1026.1 2.2 NE 6.0 0.0 0.0
19:04 15.7 4.7 48 1026.1 3.1 NE 6.0 0.0 0.0
19:05 15.7 4.7 48 1026.0 3.1 NE 6.0 0.0 0.0
19:06 15.7 4.7 48 1026.2 4.5 NE 6.0 0.0 0.0
19:07 15.6 4.6 48 1026.0 5.4 NE 6.0 0.0 0.0
19:09 15.6 4.6 48 1026.0 3.8 NE 6.0 0.0 0.0
19:10 15.6 4.9 49 1025.9 3.1 NE 5.4 0.0 0.0
19:11 15.6 4.9 49 1025.9 1.6 NE 5.4 0.0 0.0
19:12 15.6 4.9 49 1026.0 3.1 NE 5.4 0.0 0.0
19:13 15.6 5.2 50 1025.9 4.5 NE 5.4 0.0 0.0
19:14 15.6 5.2 50 1026.0 3.1 NE 5.4 0.0 0.0
19:16 15.5 5.4 51 1025.9 2.2 NE 5.4 0.0 0.0
19:18 15.5 5.4 51 1026.0 3.1 NE 4.5 0.0 0.0
19:20 15.5 5.4 51 1025.9 3.1 NE 4.5 0.0 0.0
19:22 15.6 5.5 51 1026.0 4.5 NE 4.5 0.0 0.0
19:24 15.6 5.5 51 1025.8 3.8 NE 4.5 0.0 0.0
19:27 15.6 5.5 51 1025.8 3.8 NE 4.5 0.0 0.0
19:29 15.5 5.4 51 1025.9 3.8 NE 5.4 0.0 0.0
19:31 15.5 5.4 51 1025.7 3.8 NE 5.4 0.0 0.0
19:33 15.5 5.4 51 1025.9 3.8 NE 5.4 0.0 0.0
19:35 15.5 5.4 51 1025.9 4.5 NE 5.4 0.0 0.0
19:37 15.5 5.4 51 1025.9 3.1 NE 5.4 0.0 0.0
19:39 15.5 5.4 51 1025.8 3.8 NE 4.5 0.0 0.0
19:41 15.5 5.4 51 1025.8 1.6 NE 4.5 0.0 0.0
19:43 15.4 5.3 51 1025.8 2.2 NE 4.5 0.0 0.0
19:45 15.4 5.3 51 1025.8 0.7 NE 3.8 0.0 0.0
19:47 15.4 5.3 51 1025.9 2.2 NE 3.8 0.0 0.0
19:49 15.4 5.3 51 1025.7 0.7 NE 3.1 0.0 0.0
19:51 15.4 5.6 52 1025.9 0.7 NE 2.2 0.0 0.0
19:53 15.4 5.3 51 1025.8 2.2 NE 2.2 0.0 0.0
19:56 15.4 5.3 51 1025.8 3.1 NE 3.1 0.0 0.0
19:57 15.4 5.3 51 1025.9 2.2 NE 3.1 0.0 0.0
19:59 15.4 5.3 51 1025.9 1.6 NE 3.1 0.0 0.0
20:01 15.4 5.3 51 1025.7 1.6 NE 3.1 0.0 0.0
20:04 15.4 5.3 51 1025.9 1.6 NE 3.1 0.0 0.0
20:06 15.4 5.3 51 1025.8 3.1 NE 3.1 0.0 0.0
20:08 15.4 5.0 50 1025.8 1.6 NE 3.1 0.0 0.0
20:10 15.4 5.0 50 1025.7 2.2 NE 3.1 0.0 0.0
20:12 15.3 4.9 50 1025.8 3.1 NE 3.1 0.0 0.0
20:15 15.3 4.9 50 1025.8 2.2 NE 3.1 0.0 0.0
20:17 15.2 4.9 50 1025.8 0.7 NE 3.1 0.0 0.0
20:19 15.1 4.8 50 1025.8 1.6 NE 3.1 0.0 0.0
20:21 15.1 4.8 50 1025.9 1.6 NE 3.1 0.0 0.0
20:22 15.0 4.7 50 1025.8 1.6 NE 3.1 0.0 0.0
20:24 14.8 4.2 49 1025.9 1.6 NE 3.1 0.0 0.0
20:26 14.8 4.2 49 1025.8 1.6 NE 3.1 0.0 0.0
20:27 14.7 4.1 49 1025.7 0.7 NE 3.1 0.0 0.0
20:28 14.6 4.3 50 1025.7 1.6 NE 3.1 0.0 0.0
20:29 14.5 4.2 50 1025.8 1.6 NE 3.1 0.0 0.0
20:31 14.4 4.1 50 1025.8 2.2 NE 2.2 0.0 0.0
20:33 14.3 4.0 50 1025.7 2.2 NE 2.2 0.0 0.0
20:34 14.2 3.9 50 1025.7 2.2 NE 2.2 0.0 0.0
20:35 14.1 3.8 50 1025.8 2.2 NE 2.2 0.0 0.0
20:37 14.1 3.8 50 1025.7 1.6 NE 2.2 0.0 0.0
20:38 13.9 3.9 51 1025.8 1.6 NE 2.2 0.0 0.0
20:39 13.9 3.9 51 1025.7 1.6 NE 2.2 0.0 0.0
20:40 13.9 3.9 51 1025.8 0.7 NE 2.2 0.0 0.0
20:41 13.8 3.8 51 1025.8 1.6 NE 2.2 0.0 0.0
20:42 13.7 3.7 51 1025.8 0.7 NE 2.2 0.0 0.0
20:43 13.7 3.7 51 1025.7 0.0 NE 2.2 0.0 0.0
20:44 13.6 3.7 51 1025.6 0.0 NE 2.2 0.0 0.0
20:45 13.5 3.6 51 1025.7 0.7 NE 2.2 0.0 0.0
20:46 13.5 3.6 51 1025.7 0.0 NE 2.2 0.0 0.0
20:47 13.4 3.7 52 1025.8 0.0 NE 2.2 0.0 0.0
20:48 13.4 3.7 52 1025.8 0.0 NE 1.6 0.0 0.0
20:49 13.3 3.7 52 1025.7 0.7 NE 1.6 0.0 0.0
20:51 13.2 3.6 52 1025.8 0.7 NE 0.7 0.0 0.0
20:52 13.2 3.6 52 1025.7 2.2 NE 2.2 0.0 0.0
20:53 13.1 3.5 52 1025.8 1.6 NE 2.2 0.0 0.0
20:54 13.0 3.6 53 1025.6 1.6 NE 2.2 0.0 0.0
20:55 13.0 3.6 53 1025.8 0.7 NE 2.2 0.0 0.0
20:56 12.9 3.6 53 1025.8 1.6 NE 2.2 0.0 0.0
20:57 12.8 3.5 53 1025.7 1.6 NE 2.2 0.0 0.0
20:58 12.8 3.7 54 1025.7 1.6 NE 2.2 0.0 0.0
21:00 12.7 3.6 54 1025.7 1.6 NE 2.2 0.0 0.0
21:01 12.7 3.6 54 1025.7 1.6 NE 2.2 0.0 0.0
21:02 12.7 3.6 54 1025.7 1.6 NE 2.2 0.0 0.0
21:03 12.7 3.6 54 1025.6 1.6 NE 1.6 0.0 0.0
21:04 12.7 3.6 54 1025.7 1.6 NE 1.6 0.0 0.0
21:05 12.4 3.4 54 1025.6 2.2 NE 2.2 0.0 0.0
21:06 12.4 3.4 54 1025.6 2.2 NE 2.2 0.0 0.0
21:08 12.3 3.3 54 1025.6 3.1 NE 3.1 0.0 0.0
21:09 12.3 3.3 54 1025.7 1.6 NE 3.1 0.0 0.0
21:10 12.2 3.2 54 1025.6 1.6 NE 3.1 0.0 0.0
21:11 12.2 3.4 55 1025.7 1.6 NE 3.1 0.0 0.0
21:12 12.1 3.3 55 1025.6 0.7 NE 3.1 0.0 0.0
21:14 12.0 3.2 55 1025.7 1.6 NE 3.1 0.0 0.0
21:15 12.0 3.2 55 1025.8 1.6 NE 3.1 0.0 0.0
21:16 12.0 3.2 55 1025.7 0.7 NE 3.1 0.0 0.0
21:17 11.9 3.1 55 1025.7 1.6 NE 3.1 0.0 0.0
21:18 11.9 3.1 55 1025.7 1.6 NE 2.2 0.0 0.0
21:19 11.8 3.1 55 1025.8 2.2 NE 2.2 0.0 0.0
21:21 11.8 3.3 56 1025.8 1.6 NE 2.2 0.0 0.0
21:22 11.7 3.2 56 1025.7 1.6 NE 2.2 0.0 0.0
21:23 11.7 3.2 56 1025.7 2.2 NE 2.2 0.0 0.0
21:24 11.7 3.2 56 1025.8 1.6 NE 2.2 0.0 0.0
21:25 11.6 3.1 56 1025.9 1.6 NE 2.2 0.0 0.0
21:26 11.6 3.1 56 1025.8 1.6 NE 2.2 0.0 0.0
21:27 11.5 3.0 56 1025.9 1.6 NE 2.2 0.0 0.0
21:29 11.5 3.3 57 1025.9 1.6 NE 2.2 0.0 0.0
21:30 11.5 3.3 57 1025.7 1.6 NE 2.2 0.0 0.0
21:31 11.4 3.2 57 1025.7 1.6 NE 2.2 0.0 0.0
21:32 11.4 3.2 57 1025.7 2.2 NE 2.2 0.0 0.0
21:33 11.3 3.1 57 1025.8 2.2 NE 2.2 0.0 0.0
21:34 11.4 3.2 57 1025.7 3.1 NE 3.1 0.0 0.0
21:35 11.3 3.1 57 1025.7 2.2 NE 3.1 0.0 0.0
21:36 11.2 3.2 58 1025.5 2.2 NE 3.1 0.0 0.0
21:37 11.2 3.2 58 1025.7 1.6 NE 3.1 0.0 0.0
21:39 11.2 3.2 58 1025.8 2.2 NE 3.1 0.0 0.0
21:40 11.2 3.2 58 1025.8 2.2 NE 3.1 0.0 0.0
21:41 11.2 3.2 58 1025.7 2.2 NE 3.1 0.0 0.0
21:42 11.1 3.2 58 1025.8 2.2 NE 3.1 0.0 0.0
21:43 11.1 3.2 58 1025.8 1.6 NE 3.1 0.0 0.0
21:45 11.1 3.2 58 1025.8 1.6 NE 3.1 0.0 0.0
21:46 11.0 3.1 58 1025.8 1.6 NE 2.2 0.0 0.0
21:47 11.0 3.1 58 1025.7 1.6 NE 2.2 0.0 0.0
21:48 11.0 3.1 58 1025.8 1.6 NE 2.2 0.0 0.0
21:50 10.9 3.2 59 1025.7 1.6 NE 2.2 0.0 0.0
21:51 10.9 3.2 59 1025.8 1.6 NE 2.2 0.0 0.0
21:53 10.9 3.2 59 1025.6 1.6 NE 1.6 0.0 0.0
21:54 10.8 3.1 59 1025.9 0.7 NE 1.6 0.0 0.0
21:55 10.8 3.1 59 1025.9 0.7 NE 1.6 0.0 0.0
21:56 10.8 3.1 59 1025.8 1.6 NE 1.6 0.0 0.0
21:57 10.7 3.0 59 1025.8 1.6 NE 1.6 0.0 0.0
21:59 10.7 3.3 60 1025.8 2.2 NE 2.2 0.0 0.0
22:00 10.7 3.3 60 1025.8 1.6 NE 2.2 0.0 0.0
22:01 10.6 3.2 60 1025.8 1.6 NE 2.2 0.0 0.0
22:02 10.6 3.2 60 1025.8 1.6 NE 2.2 0.0 0.0
22:04 10.6 3.4 61 1025.7 1.6 NE 2.2 0.0 0.0
22:05 10.6 3.4 61 1025.7 1.6 NE 2.2 0.0 0.0
22:06 10.5 3.3 61 1025.7 3.1 NE 3.1 0.0 0.0
22:07 10.5 3.3 61 1025.8 2.2 NE 3.1 0.0 0.0
22:08 10.5 3.3 61 1025.8 1.6 NE 3.1 0.0 0.0
22:10 10.4 3.2 61 1025.8 1.6 NE 3.1 0.0 0.0
22:12 10.4 3.4 62 1025.6 1.6 NE 3.1 0.0 0.0
22:14 10.3 3.3 62 1025.8 0.7 NE 3.1 0.0 0.0
22:15 10.3 3.3 62 1025.6 1.6 NE 3.1 0.0 0.0
22:17 10.3 3.3 62 1025.7 1.6 NE 2.2 0.0 0.0
22:18 10.2 3.2 62 1025.7 1.6 NE 2.2 0.0 0.0
22:20 10.2 3.2 62 1025.6 2.2 NE 2.2 0.0 0.0
22:21 10.1 3.2 62 1025.7 2.2 NE 2.2 0.0 0.0
22:23 10.1 3.4 63 1025.7 1.6 NE 2.2 0.0 0.0
22:24 10.1 3.4 63 1025.8 2.2 NE 2.2 0.0 0.0
22:25 10.0 3.3 63 1025.8 1.6 NE 2.2 0.0 0.0
22:26 10.0 3.3 63 1025.8 2.2 NE 2.2 0.0 0.0
22:27 10.0 3.3 63 1025.8 2.2 NE 2.2 0.0 0.0
22:28 9.9 3.2 63 1025.8 2.2 NE 2.2 0.0 0.0
22:29 9.9 3.2 63 1025.9 2.2 NE 2.2 0.0 0.0
22:31 9.9 3.2 63 1025.9 2.2 NE 2.2 0.0 0.0
22:33 9.8 3.3 64 1025.7 2.2 NE 2.2 0.0 0.0
22:35 9.8 3.3 64 1025.8 1.6 NE 2.2 0.0 0.0
22:37 9.7 3.2 64 1025.8 1.6 NE 2.2 0.0 0.0
22:41 9.6 3.1 64 1025.8 0.7 NE 2.2 0.0 0.0
22:43 9.6 3.1 64 1025.8 1.6 NE 1.6 0.0 0.0
22:45 9.6 3.1 64 1026.0 1.6 NE 1.6 0.0 0.0
22:46 9.6 3.3 65 1025.9 2.2 NE 2.2 0.0 0.0
22:47 9.5 3.3 65 1025.8 1.6 NE 2.2 0.0 0.0
22:49 9.5 3.3 65 1026.0 1.6 NE 2.2 0.0 0.0
22:50 9.5 3.3 65 1025.9 1.6 NE 2.2 0.0 0.0
22:51 9.5 3.3 65 1026.0 1.6 NE 2.2 0.0 0.0
22:52 9.5 3.3 65 1025.9 1.6 NE 2.2 0.0 0.0
22:53 9.5 3.3 65 1025.8 0.7 NE 2.2 0.0 0.0
22:55 9.5 3.3 65 1026.0 1.6 NE 2.2 0.0 0.0
22:56 9.5 3.3 65 1025.9 2.2 NE 2.2 0.0 0.0
22:57 9.5 3.3 65 1025.8 1.6 NE 2.2 0.0 0.0
22:58 9.5 3.5 66 1025.9 1.6 NE 2.2 0.0 0.0
23:00 9.5 3.5 66 1025.8 1.6 NE 2.2 0.0 0.0
23:01 9.5 3.5 66 1025.8 1.6 NE 2.2 0.0 0.0
23:02 9.5 3.5 66 1025.8 1.6 NE 2.2 0.0 0.0
23:03 9.5 3.5 66 1025.8 1.6 NE 2.2 0.0 0.0
23:04 9.5 3.5 66 1025.7 1.6 NE 2.2 0.0 0.0
23:06 9.4 3.4 66 1025.7 1.6 NE 1.6 0.0 0.0
23:08 9.4 3.4 66 1025.8 2.2 NE 2.2 0.0 0.0
23:09 9.4 3.4 66 1025.9 1.6 NE 2.2 0.0 0.0
23:11 9.5 3.5 66 1025.8 1.6 NE 2.2 0.0 0.0
23:12 9.4 3.4 66 1025.7 1.6 NE 2.2 0.0 0.0
23:13 9.4 3.4 66 1025.7 1.6 NE 2.2 0.0 0.0
23:14 9.4 3.4 66 1025.8 1.6 NE 2.2 0.0 0.0
23:15 9.4 3.4 66 1025.7 1.6 NE 2.2 0.0 0.0
23:16 9.4 3.4 66 1025.8 1.6 NE 2.2 0.0 0.0
23:18 9.4 3.4 66 1025.7 1.6 NE 1.6 0.0 0.0
23:19 9.4 3.4 66 1025.9 2.2 NE 2.2 0.0 0.0
23:20 9.4 3.4 66 1025.8 2.2 NE 2.2 0.0 0.0
23:21 9.4 3.4 66 1026.0 2.2 NE 2.2 0.0 0.0
23:22 9.4 3.4 66 1025.8 2.2 NE 2.2 0.0 0.0
23:24 9.4 3.4 66 1025.8 2.2 NE 3.1 0.0 0.0
23:25 9.4 3.6 67 1025.8 3.1 NE 3.1 0.0 0.0
23:26 9.4 3.6 67 1025.9 2.2 NE 3.1 0.0 0.0
23:27 9.3 3.5 67 1025.8 1.6 NE 3.1 0.0 0.0
23:28 9.3 3.5 67 1025.8 2.2 NE 3.1 0.0 0.0
23:29 9.3 3.5 67 1026.0 2.2 NE 3.1 0.0 0.0
23:31 9.3 3.5 67 1025.8 2.2 NE 3.1 0.0 0.0
23:32 9.3 3.5 67 1025.9 2.2 NE 3.1 0.0 0.0
23:33 9.2 3.4 67 1025.9 2.2 NE 3.1 0.0 0.0
23:35 9.2 3.6 68 1025.9 2.2 NE 3.1 0.0 0.0
23:38 9.2 3.6 68 1025.9 3.1 NE 3.1 0.0 0.0
23:39 9.2 3.8 69 1026.0 2.2 NE 3.1 0.0 0.0
23:41 9.2 3.8 69 1026.0 2.2 NE 3.1 0.0 0.0
23:42 9.2 3.8 69 1025.9 2.2 NE 3.1 0.0 0.0
23:43 9.2 3.8 69 1026.0 2.2 NE 3.1 0.0 0.0
23:44 9.1 3.7 69 1026.0 3.1 NE 3.1 0.0 0.0
23:46 9.1 3.7 69 1026.0 3.1 NE 3.1 0.0 0.0
23:47 9.2 3.8 69 1026.0 3.8 NE 3.8 0.0 0.0
23:48 9.1 3.9 70 1026.1 2.2 NE 3.8 0.0 0.0
23:49 9.1 3.9 70 1026.0 2.2 NE 3.8 0.0 0.0
23:50 9.1 3.9 70 1026.0 3.1 NE 3.8 0.0 0.0
23:51 9.1 3.9 70 1026.1 3.1 NE 3.8 0.0 0.0
23:52 9.1 3.9 70 1025.9 3.1 NE 3.8 0.0 0.0
23:54 9.1 3.9 70 1026.0 3.1 NE 3.8 0.0 0.0
23:55 9.1 3.9 70 1026.0 2.2 NE 3.8 0.0 0.0
23:56 9.1 3.9 70 1026.0 2.2 NE 3.8 0.0 0.0
23:58 9.1 3.9 70 1026.1 1.6 NE 3.1 0.0 0.0
23:59 9.1 3.9 70 1026.0 2.2 NE 3.1 0.0 0.0

UK - WEATHER STATION TOPSITES - UK World Weather Websites

This is a private weather station, never base important decisions or events on data from this weather station. Although every effort has been made to make the data as accurate as possible it does not meet MetOffice standards. It is proved as a guide of local weather conditions. We accept no liability for any loss which may arise from use of the data.

Copyright © Carnkie Weather 2009 - 2018.